<?xml version="1.0" encoding="UTF-8" standalone="no" ?>
<gpx xmlns="http://www.topografix.com/GPX/1/1" xmlns:xsi="http://www.w3.org/2001/XMLSchema-instance" xsi:schemaLocation="http://www.topografix.com/GPX/1/1 http://www.topografix.com/GPX/1/1/gpx.xsd" version="1.1" creator="VisuGPX - https://www.visugpx.com">
  <metadata>
    <name>Vacances 2021</name>
  </metadata>
  <trk>
    <name><![CDATA[Journal actif: 2021-08-02 11:55]]></name>
    <trkseg>
      <trkpt lat="47.67669" lon="-2.7738">
        <ele>25.13</ele>
        <time>2021-08-02T13:55:21Z</time>
      </trkpt>
      <trkpt lat="47.67669" lon="-2.7738">
        <ele>24.65</ele>
        <time>2021-08-02T14:00:50Z</time>
      </trkpt>
      <trkpt lat="47.67669" lon="-2.7738">
        <ele>24.65</ele>
        <time>2021-08-02T14:01:05Z</time>
      </trkpt>
      <trkpt lat="47.67669" lon="-2.7738">
        <ele>24.65</ele>
        <time>2021-08-02T14:01:06Z</time>
      </trkpt>
      <trkpt lat="47.67672" lon="-2.77352">
        <ele>23.69</ele>
        <time>2021-08-02T14:01:10Z</time>
      </trkpt>
      <trkpt lat="47.67659" lon="-2.77318">
        <ele>23.21</ele>
        <time>2021-08-02T14:01:25Z</time>
      </trkpt>
      <trkpt lat="47.67658" lon="-2.77319">
        <ele>23.21</ele>
        <time>2021-08-02T14:01:30Z</time>
      </trkpt>
      <trkpt lat="47.67651" lon="-2.77327">
        <ele>23.21</ele>
        <time>2021-08-02T14:01:33Z</time>
      </trkpt>
      <trkpt lat="47.67651" lon="-2.77327">
        <ele>23.21</ele>
        <time>2021-08-02T14:01:34Z</time>
      </trkpt>
      <trkpt lat="47.67652" lon="-2.7733">
        <ele>23.21</ele>
        <time>2021-08-02T14:01:35Z</time>
      </trkpt>
      <trkpt lat="47.67653" lon="-2.77335">
        <ele>23.21</ele>
        <time>2021-08-02T14:01:36Z</time>
      </trkpt>
      <trkpt lat="47.67655" lon="-2.77343">
        <ele>23.21</ele>
        <time>2021-08-02T14:01:37Z</time>
      </trkpt>
      <trkpt lat="47.67665" lon="-2.7737">
        <ele>22.73</ele>
        <time>2021-08-02T14:01:50Z</time>
      </trkpt>
      <trkpt lat="47.67668" lon="-2.77378">
        <ele>22.73</ele>
        <time>2021-08-02T14:02:08Z</time>
      </trkpt>
      <trkpt lat="47.67673" lon="-2.77387">
        <ele>23.21</ele>
        <time>2021-08-02T14:02:12Z</time>
      </trkpt>
      <trkpt lat="47.67678" lon="-2.7739">
        <ele>23.21</ele>
        <time>2021-08-02T14:02:13Z</time>
      </trkpt>
      <trkpt lat="47.6769" lon="-2.77411">
        <ele>22.73</ele>
        <time>2021-08-02T14:02:14Z</time>
      </trkpt>
      <trkpt lat="47.67691" lon="-2.77421">
        <ele>22.25</ele>
        <time>2021-08-02T14:02:15Z</time>
      </trkpt>
      <trkpt lat="47.67693" lon="-2.77434">
        <ele>21.77</ele>
        <time>2021-08-02T14:02:16Z</time>
      </trkpt>
      <trkpt lat="47.67684" lon="-2.77454">
        <ele>21.77</ele>
        <time>2021-08-02T14:02:17Z</time>
      </trkpt>
      <trkpt lat="47.67684" lon="-2.77454">
        <ele>21.77</ele>
        <time>2021-08-02T14:02:18Z</time>
      </trkpt>
      <trkpt lat="47.67679" lon="-2.7746">
        <ele>21.29</ele>
        <time>2021-08-02T14:02:19Z</time>
      </trkpt>
      <trkpt lat="47.67671" lon="-2.77464">
        <ele>21.29</ele>
        <time>2021-08-02T14:02:20Z</time>
      </trkpt>
      <trkpt lat="47.67663" lon="-2.77465">
        <ele>21.29</ele>
        <time>2021-08-02T14:02:21Z</time>
      </trkpt>
      <trkpt lat="47.67656" lon="-2.7746">
        <ele>21.29</ele>
        <time>2021-08-02T14:02:22Z</time>
      </trkpt>
      <trkpt lat="47.67619" lon="-2.77454">
        <ele>21.29</ele>
        <time>2021-08-02T14:02:25Z</time>
      </trkpt>
      <trkpt lat="47.67619" lon="-2.77454">
        <ele>21.77</ele>
        <time>2021-08-02T14:02:26Z</time>
      </trkpt>
      <trkpt lat="47.67499" lon="-2.77454">
        <ele>17.92</ele>
        <time>2021-08-02T14:02:35Z</time>
      </trkpt>
      <trkpt lat="47.67353" lon="-2.77394">
        <ele>16</ele>
        <time>2021-08-02T14:02:45Z</time>
      </trkpt>
      <trkpt lat="47.67237" lon="-2.77281">
        <ele>15.04</ele>
        <time>2021-08-02T14:02:55Z</time>
      </trkpt>
      <trkpt lat="47.67101" lon="-2.77104">
        <ele>12.63</ele>
        <time>2021-08-02T14:03:10Z</time>
      </trkpt>
      <trkpt lat="47.6709" lon="-2.77089">
        <ele>11.67</ele>
        <time>2021-08-02T14:03:16Z</time>
      </trkpt>
      <trkpt lat="47.67076" lon="-2.7707">
        <ele>11.19</ele>
        <time>2021-08-02T14:03:54Z</time>
      </trkpt>
      <trkpt lat="47.67001" lon="-2.76988">
        <ele>10.71</ele>
        <time>2021-08-02T14:04:03Z</time>
      </trkpt>
      <trkpt lat="47.6695" lon="-2.76974">
        <ele>10.23</ele>
        <time>2021-08-02T14:04:10Z</time>
      </trkpt>
      <trkpt lat="47.66923" lon="-2.76974">
        <ele>9.27</ele>
        <time>2021-08-02T14:04:19Z</time>
      </trkpt>
      <trkpt lat="47.66867" lon="-2.76982">
        <ele>8.31</ele>
        <time>2021-08-02T14:04:27Z</time>
      </trkpt>
      <trkpt lat="47.66867" lon="-2.76982">
        <ele>8.31</ele>
        <time>2021-08-02T14:04:28Z</time>
      </trkpt>
      <trkpt lat="47.66861" lon="-2.76983">
        <ele>8.31</ele>
        <time>2021-08-02T14:04:29Z</time>
      </trkpt>
      <trkpt lat="47.66838" lon="-2.76986">
        <ele>7.83</ele>
        <time>2021-08-02T14:04:37Z</time>
      </trkpt>
      <trkpt lat="47.66817" lon="-2.76989">
        <ele>8.79</ele>
        <time>2021-08-02T14:05:07Z</time>
      </trkpt>
      <trkpt lat="47.66801" lon="-2.76993">
        <ele>8.79</ele>
        <time>2021-08-02T14:05:09Z</time>
      </trkpt>
      <trkpt lat="47.66801" lon="-2.76993">
        <ele>8.79</ele>
        <time>2021-08-02T14:05:10Z</time>
      </trkpt>
      <trkpt lat="47.66792" lon="-2.77004">
        <ele>8.79</ele>
        <time>2021-08-02T14:05:11Z</time>
      </trkpt>
      <trkpt lat="47.66792" lon="-2.77004">
        <ele>8.79</ele>
        <time>2021-08-02T14:05:12Z</time>
      </trkpt>
      <trkpt lat="47.66788" lon="-2.7701">
        <ele>8.79</ele>
        <time>2021-08-02T14:05:13Z</time>
      </trkpt>
      <trkpt lat="47.66784" lon="-2.77019">
        <ele>8.79</ele>
        <time>2021-08-02T14:05:14Z</time>
      </trkpt>
      <trkpt lat="47.66781" lon="-2.77027">
        <ele>9.27</ele>
        <time>2021-08-02T14:05:15Z</time>
      </trkpt>
      <trkpt lat="47.6678" lon="-2.77039">
        <ele>9.27</ele>
        <time>2021-08-02T14:05:16Z</time>
      </trkpt>
      <trkpt lat="47.66781" lon="-2.77049">
        <ele>9.75</ele>
        <time>2021-08-02T14:05:17Z</time>
      </trkpt>
      <trkpt lat="47.66784" lon="-2.7706">
        <ele>10.23</ele>
        <time>2021-08-02T14:05:18Z</time>
      </trkpt>
      <trkpt lat="47.66788" lon="-2.77069">
        <ele>10.23</ele>
        <time>2021-08-02T14:05:19Z</time>
      </trkpt>
      <trkpt lat="47.66793" lon="-2.77079">
        <ele>10.71</ele>
        <time>2021-08-02T14:05:20Z</time>
      </trkpt>
      <trkpt lat="47.668" lon="-2.77084">
        <ele>10.71</ele>
        <time>2021-08-02T14:05:21Z</time>
      </trkpt>
      <trkpt lat="47.66807" lon="-2.77089">
        <ele>10.71</ele>
        <time>2021-08-02T14:05:22Z</time>
      </trkpt>
      <trkpt lat="47.66814" lon="-2.77092">
        <ele>10.71</ele>
        <time>2021-08-02T14:05:23Z</time>
      </trkpt>
      <trkpt lat="47.66823" lon="-2.77092">
        <ele>11.19</ele>
        <time>2021-08-02T14:05:24Z</time>
      </trkpt>
      <trkpt lat="47.66831" lon="-2.77089">
        <ele>11.19</ele>
        <time>2021-08-02T14:05:25Z</time>
      </trkpt>
      <trkpt lat="47.66839" lon="-2.77083">
        <ele>11.67</ele>
        <time>2021-08-02T14:05:26Z</time>
      </trkpt>
      <trkpt lat="47.66847" lon="-2.77075">
        <ele>11.67</ele>
        <time>2021-08-02T14:05:27Z</time>
      </trkpt>
      <trkpt lat="47.66852" lon="-2.77063">
        <ele>12.15</ele>
        <time>2021-08-02T14:05:28Z</time>
      </trkpt>
      <trkpt lat="47.66857" lon="-2.7705">
        <ele>12.15</ele>
        <time>2021-08-02T14:05:29Z</time>
      </trkpt>
      <trkpt lat="47.66862" lon="-2.77018">
        <ele>12.63</ele>
        <time>2021-08-02T14:05:30Z</time>
      </trkpt>
      <trkpt lat="47.6688" lon="-2.76857">
        <ele>15.04</ele>
        <time>2021-08-02T14:05:39Z</time>
      </trkpt>
      <trkpt lat="47.6691" lon="-2.76509">
        <ele>19.84</ele>
        <time>2021-08-02T14:05:53Z</time>
      </trkpt>
      <trkpt lat="47.66961" lon="-2.75964">
        <ele>23.21</ele>
        <time>2021-08-02T14:06:12Z</time>
      </trkpt>
      <trkpt lat="47.67002" lon="-2.75589">
        <ele>24.65</ele>
        <time>2021-08-02T14:06:25Z</time>
      </trkpt>
      <trkpt lat="47.67053" lon="-2.75099">
        <ele>28.5</ele>
        <time>2021-08-02T14:06:42Z</time>
      </trkpt>
      <trkpt lat="47.67053" lon="-2.74805">
        <ele>27.53</ele>
        <time>2021-08-02T14:06:53Z</time>
      </trkpt>
      <trkpt lat="47.67019" lon="-2.74503">
        <ele>19.36</ele>
        <time>2021-08-02T14:07:04Z</time>
      </trkpt>
      <trkpt lat="47.66944" lon="-2.74071">
        <ele>9.75</ele>
        <time>2021-08-02T14:07:18Z</time>
      </trkpt>
      <trkpt lat="47.66888" lon="-2.73785">
        <ele>9.75</ele>
        <time>2021-08-02T14:07:28Z</time>
      </trkpt>
      <trkpt lat="47.66796" lon="-2.73369">
        <ele>7.35</ele>
        <time>2021-08-02T14:07:43Z</time>
      </trkpt>
      <trkpt lat="47.667" lon="-2.73006">
        <ele>5.42</ele>
        <time>2021-08-02T14:07:56Z</time>
      </trkpt>
      <trkpt lat="47.66566" lon="-2.72503">
        <ele>5.42</ele>
        <time>2021-08-02T14:08:12Z</time>
      </trkpt>
      <trkpt lat="47.66469" lon="-2.72143">
        <ele>10.71</ele>
        <time>2021-08-02T14:08:26Z</time>
      </trkpt>
      <trkpt lat="47.66326" lon="-2.71614">
        <ele>12.63</ele>
        <time>2021-08-02T14:08:45Z</time>
      </trkpt>
      <trkpt lat="47.66171" lon="-2.71076">
        <ele>12.15</ele>
        <time>2021-08-02T14:09:03Z</time>
      </trkpt>
      <trkpt lat="47.66038" lon="-2.7079">
        <ele>13.6</ele>
        <time>2021-08-02T14:09:14Z</time>
      </trkpt>
      <trkpt lat="47.65892" lon="-2.70605">
        <ele>11.67</ele>
        <time>2021-08-02T14:09:23Z</time>
      </trkpt>
      <trkpt lat="47.65713" lon="-2.70479">
        <ele>5.42</ele>
        <time>2021-08-02T14:09:32Z</time>
      </trkpt>
      <trkpt lat="47.6551" lon="-2.70432">
        <ele>0.14</ele>
        <time>2021-08-02T14:09:41Z</time>
      </trkpt>
      <trkpt lat="47.65303" lon="-2.70431">
        <ele>-2.27</ele>
        <time>2021-08-02T14:09:51Z</time>
      </trkpt>
      <trkpt lat="47.64988" lon="-2.7041">
        <ele>0.14</ele>
        <time>2021-08-02T14:10:06Z</time>
      </trkpt>
      <trkpt lat="47.64827" lon="-2.70327">
        <ele>3.5</ele>
        <time>2021-08-02T14:10:14Z</time>
      </trkpt>
      <trkpt lat="47.64668" lon="-2.70163">
        <ele>3.02</ele>
        <time>2021-08-02T14:10:23Z</time>
      </trkpt>
      <trkpt lat="47.64547" lon="-2.69956">
        <ele>2.54</ele>
        <time>2021-08-02T14:10:31Z</time>
      </trkpt>
      <trkpt lat="47.64417" lon="-2.69601">
        <ele>2.54</ele>
        <time>2021-08-02T14:10:43Z</time>
      </trkpt>
      <trkpt lat="47.64277" lon="-2.69122">
        <ele>11.19</ele>
        <time>2021-08-02T14:10:59Z</time>
      </trkpt>
      <trkpt lat="47.64142" lon="-2.68604">
        <ele>10.23</ele>
        <time>2021-08-02T14:11:15Z</time>
      </trkpt>
      <trkpt lat="47.6397" lon="-2.67965">
        <ele>1.58</ele>
        <time>2021-08-02T14:11:34Z</time>
      </trkpt>
      <trkpt lat="47.63844" lon="-2.67517">
        <ele>8.31</ele>
        <time>2021-08-02T14:11:48Z</time>
      </trkpt>
      <trkpt lat="47.63691" lon="-2.66983">
        <ele>19.84</ele>
        <time>2021-08-02T14:12:05Z</time>
      </trkpt>
      <trkpt lat="47.63558" lon="-2.66528">
        <ele>12.63</ele>
        <time>2021-08-02T14:12:20Z</time>
      </trkpt>
      <trkpt lat="47.63321" lon="-2.65701">
        <ele>12.15</ele>
        <time>2021-08-02T14:12:46Z</time>
      </trkpt>
      <trkpt lat="47.63247" lon="-2.65323">
        <ele>13.6</ele>
        <time>2021-08-02T14:12:57Z</time>
      </trkpt>
      <trkpt lat="47.63181" lon="-2.6488">
        <ele>8.79</ele>
        <time>2021-08-02T14:13:10Z</time>
      </trkpt>
      <trkpt lat="47.63114" lon="-2.64446">
        <ele>3.98</ele>
        <time>2021-08-02T14:13:23Z</time>
      </trkpt>
      <trkpt lat="47.63065" lon="-2.64144">
        <ele>3.98</ele>
        <time>2021-08-02T14:13:34Z</time>
      </trkpt>
      <trkpt lat="47.62988" lon="-2.63882">
        <ele>1.58</ele>
        <time>2021-08-02T14:13:43Z</time>
      </trkpt>
      <trkpt lat="47.62884" lon="-2.6368">
        <ele>1.58</ele>
        <time>2021-08-02T14:13:51Z</time>
      </trkpt>
      <trkpt lat="47.62725" lon="-2.63498">
        <ele>3.02</ele>
        <time>2021-08-02T14:14:00Z</time>
      </trkpt>
      <trkpt lat="47.62332" lon="-2.63121">
        <ele>11.19</ele>
        <time>2021-08-02T14:14:21Z</time>
      </trkpt>
      <trkpt lat="47.62168" lon="-2.62959">
        <ele>17.44</ele>
        <time>2021-08-02T14:14:30Z</time>
      </trkpt>
      <trkpt lat="47.61932" lon="-2.62622">
        <ele>15.52</ele>
        <time>2021-08-02T14:14:44Z</time>
      </trkpt>
      <trkpt lat="47.61543" lon="-2.62041">
        <ele>10.23</ele>
        <time>2021-08-02T14:15:07Z</time>
      </trkpt>
      <trkpt lat="47.6125" lon="-2.61551">
        <ele>6.87</ele>
        <time>2021-08-02T14:15:25Z</time>
      </trkpt>
      <trkpt lat="47.60969" lon="-2.61057">
        <ele>9.75</ele>
        <time>2021-08-02T14:15:44Z</time>
      </trkpt>
      <trkpt lat="47.60661" lon="-2.60511">
        <ele>12.63</ele>
        <time>2021-08-02T14:16:05Z</time>
      </trkpt>
      <trkpt lat="47.60463" lon="-2.60062">
        <ele>14.08</ele>
        <time>2021-08-02T14:16:20Z</time>
      </trkpt>
      <trkpt lat="47.60321" lon="-2.59612">
        <ele>23.69</ele>
        <time>2021-08-02T14:16:36Z</time>
      </trkpt>
      <trkpt lat="47.60145" lon="-2.58981">
        <ele>35.23</ele>
        <time>2021-08-02T14:16:56Z</time>
      </trkpt>
      <trkpt lat="47.59985" lon="-2.58412">
        <ele>32.82</ele>
        <time>2021-08-02T14:17:13Z</time>
      </trkpt>
      <trkpt lat="47.59828" lon="-2.57968">
        <ele>31.86</ele>
        <time>2021-08-02T14:17:26Z</time>
      </trkpt>
      <trkpt lat="47.59655" lon="-2.5749">
        <ele>27.05</ele>
        <time>2021-08-02T14:17:40Z</time>
      </trkpt>
      <trkpt lat="47.59547" lon="-2.57016">
        <ele>19.36</ele>
        <time>2021-08-02T14:17:53Z</time>
      </trkpt>
      <trkpt lat="47.59423" lon="-2.56676">
        <ele>13.12</ele>
        <time>2021-08-02T14:18:03Z</time>
      </trkpt>
      <trkpt lat="47.59304" lon="-2.56336">
        <ele>18.4</ele>
        <time>2021-08-02T14:18:13Z</time>
      </trkpt>
      <trkpt lat="47.59186" lon="-2.55791">
        <ele>25.61</ele>
        <time>2021-08-02T14:18:27Z</time>
      </trkpt>
      <trkpt lat="47.59081" lon="-2.55484">
        <ele>25.61</ele>
        <time>2021-08-02T14:18:37Z</time>
      </trkpt>
      <trkpt lat="47.58887" lon="-2.54954">
        <ele>28.98</ele>
        <time>2021-08-02T14:18:53Z</time>
      </trkpt>
      <trkpt lat="47.58635" lon="-2.54355">
        <ele>32.34</ele>
        <time>2021-08-02T14:19:12Z</time>
      </trkpt>
      <trkpt lat="47.58365" lon="-2.53846">
        <ele>35.23</ele>
        <time>2021-08-02T14:19:30Z</time>
      </trkpt>
      <trkpt lat="47.57952" lon="-2.53127">
        <ele>30.9</ele>
        <time>2021-08-02T14:19:56Z</time>
      </trkpt>
      <trkpt lat="47.57581" lon="-2.52486">
        <ele>30.9</ele>
        <time>2021-08-02T14:20:19Z</time>
      </trkpt>
      <trkpt lat="47.57293" lon="-2.52015">
        <ele>32.82</ele>
        <time>2021-08-02T14:20:37Z</time>
      </trkpt>
      <trkpt lat="47.5702" lon="-2.51748">
        <ele>30.42</ele>
        <time>2021-08-02T14:20:50Z</time>
      </trkpt>
      <trkpt lat="47.56824" lon="-2.5159">
        <ele>26.57</ele>
        <time>2021-08-02T14:20:59Z</time>
      </trkpt>
      <trkpt lat="47.56704" lon="-2.51462">
        <ele>18.4</ele>
        <time>2021-08-02T14:21:05Z</time>
      </trkpt>
      <trkpt lat="47.56493" lon="-2.51093">
        <ele>16</ele>
        <time>2021-08-02T14:21:17Z</time>
      </trkpt>
      <trkpt lat="47.56214" lon="-2.50604">
        <ele>13.6</ele>
        <time>2021-08-02T14:21:36Z</time>
      </trkpt>
      <trkpt lat="47.56034" lon="-2.50281">
        <ele>15.04</ele>
        <time>2021-08-02T14:21:48Z</time>
      </trkpt>
      <trkpt lat="47.55699" lon="-2.49802">
        <ele>20.32</ele>
        <time>2021-08-02T14:22:07Z</time>
      </trkpt>
      <trkpt lat="47.55451" lon="-2.49423">
        <ele>10.71</ele>
        <time>2021-08-02T14:22:23Z</time>
      </trkpt>
      <trkpt lat="47.55285" lon="-2.4908">
        <ele>1.1</ele>
        <time>2021-08-02T14:22:34Z</time>
      </trkpt>
      <trkpt lat="47.55144" lon="-2.4868">
        <ele>-0.34</ele>
        <time>2021-08-02T14:22:46Z</time>
      </trkpt>
      <trkpt lat="47.54953" lon="-2.48034">
        <ele>5.42</ele>
        <time>2021-08-02T14:23:05Z</time>
      </trkpt>
      <trkpt lat="47.54922" lon="-2.4774">
        <ele>6.39</ele>
        <time>2021-08-02T14:23:13Z</time>
      </trkpt>
      <trkpt lat="47.54937" lon="-2.47322">
        <ele>3.02</ele>
        <time>2021-08-02T14:23:24Z</time>
      </trkpt>
      <trkpt lat="47.54937" lon="-2.46709">
        <ele>5.42</ele>
        <time>2021-08-02T14:23:40Z</time>
      </trkpt>
      <trkpt lat="47.54927" lon="-2.46192">
        <ele>24.65</ele>
        <time>2021-08-02T14:23:55Z</time>
      </trkpt>
      <trkpt lat="47.54911" lon="-2.45558">
        <ele>24.65</ele>
        <time>2021-08-02T14:24:13Z</time>
      </trkpt>
      <trkpt lat="47.54882" lon="-2.44998">
        <ele>15.04</ele>
        <time>2021-08-02T14:24:29Z</time>
      </trkpt>
      <trkpt lat="47.54814" lon="-2.44576">
        <ele>3.98</ele>
        <time>2021-08-02T14:24:40Z</time>
      </trkpt>
      <trkpt lat="47.54717" lon="-2.4423">
        <ele>10.71</ele>
        <time>2021-08-02T14:24:50Z</time>
      </trkpt>
      <trkpt lat="47.54522" lon="-2.43717">
        <ele>25.61</ele>
        <time>2021-08-02T14:25:07Z</time>
      </trkpt>
      <trkpt lat="47.54321" lon="-2.43179">
        <ele>28.5</ele>
        <time>2021-08-02T14:25:24Z</time>
      </trkpt>
      <trkpt lat="47.54182" lon="-2.42727">
        <ele>36.67</ele>
        <time>2021-08-02T14:25:38Z</time>
      </trkpt>
      <trkpt lat="47.53997" lon="-2.42094">
        <ele>38.59</ele>
        <time>2021-08-02T14:25:57Z</time>
      </trkpt>
      <trkpt lat="47.53778" lon="-2.41334">
        <ele>43.4</ele>
        <time>2021-08-02T14:26:20Z</time>
      </trkpt>
      <trkpt lat="47.53646" lon="-2.40808">
        <ele>43.4</ele>
        <time>2021-08-02T14:26:36Z</time>
      </trkpt>
      <trkpt lat="47.53616" lon="-2.4046">
        <ele>42.92</ele>
        <time>2021-08-02T14:26:46Z</time>
      </trkpt>
      <trkpt lat="47.53638" lon="-2.40032">
        <ele>42.44</ele>
        <time>2021-08-02T14:26:58Z</time>
      </trkpt>
      <trkpt lat="47.53699" lon="-2.39211">
        <ele>41.95</ele>
        <time>2021-08-02T14:27:21Z</time>
      </trkpt>
      <trkpt lat="47.53769" lon="-2.38299">
        <ele>40.51</ele>
        <time>2021-08-02T14:27:46Z</time>
      </trkpt>
      <trkpt lat="47.53817" lon="-2.37518">
        <ele>35.71</ele>
        <time>2021-08-02T14:28:06Z</time>
      </trkpt>
      <trkpt lat="47.53824" lon="-2.37068">
        <ele>31.38</ele>
        <time>2021-08-02T14:28:19Z</time>
      </trkpt>
      <trkpt lat="47.53821" lon="-2.36254">
        <ele>34.74</ele>
        <time>2021-08-02T14:28:41Z</time>
      </trkpt>
      <trkpt lat="47.53791" lon="-2.35741">
        <ele>37.63</ele>
        <time>2021-08-02T14:28:55Z</time>
      </trkpt>
      <trkpt lat="47.53731" lon="-2.35174">
        <ele>47.24</ele>
        <time>2021-08-02T14:29:11Z</time>
      </trkpt>
      <trkpt lat="47.53659" lon="-2.34535">
        <ele>50.61</ele>
        <time>2021-08-02T14:29:30Z</time>
      </trkpt>
      <trkpt lat="47.53589" lon="-2.34057">
        <ele>45.8</ele>
        <time>2021-08-02T14:29:43Z</time>
      </trkpt>
      <trkpt lat="47.5349" lon="-2.33667">
        <ele>46.28</ele>
        <time>2021-08-02T14:29:54Z</time>
      </trkpt>
      <trkpt lat="47.53346" lon="-2.33317">
        <ele>47.24</ele>
        <time>2021-08-02T14:30:05Z</time>
      </trkpt>
      <trkpt lat="47.53133" lon="-2.3294">
        <ele>44.36</ele>
        <time>2021-08-02T14:30:18Z</time>
      </trkpt>
      <trkpt lat="47.52984" lon="-2.32632">
        <ele>42.44</ele>
        <time>2021-08-02T14:30:28Z</time>
      </trkpt>
      <trkpt lat="47.52888" lon="-2.32316">
        <ele>36.19</ele>
        <time>2021-08-02T14:30:37Z</time>
      </trkpt>
      <trkpt lat="47.52838" lon="-2.31951">
        <ele>31.86</ele>
        <time>2021-08-02T14:30:47Z</time>
      </trkpt>
      <trkpt lat="47.52839" lon="-2.31615">
        <ele>33.3</ele>
        <time>2021-08-02T14:30:56Z</time>
      </trkpt>
      <trkpt lat="47.5288" lon="-2.31294">
        <ele>35.71</ele>
        <time>2021-08-02T14:31:05Z</time>
      </trkpt>
      <trkpt lat="47.52977" lon="-2.30943">
        <ele>37.63</ele>
        <time>2021-08-02T14:31:15Z</time>
      </trkpt>
      <trkpt lat="47.53081" lon="-2.30542">
        <ele>34.26</ele>
        <time>2021-08-02T14:31:26Z</time>
      </trkpt>
      <trkpt lat="47.53142" lon="-2.30105">
        <ele>26.09</ele>
        <time>2021-08-02T14:31:38Z</time>
      </trkpt>
      <trkpt lat="47.53195" lon="-2.29578">
        <ele>16</ele>
        <time>2021-08-02T14:31:53Z</time>
      </trkpt>
      <trkpt lat="47.53174" lon="-2.29283">
        <ele>6.87</ele>
        <time>2021-08-02T14:32:01Z</time>
      </trkpt>
      <trkpt lat="47.53103" lon="-2.29004">
        <ele>1.1</ele>
        <time>2021-08-02T14:32:09Z</time>
      </trkpt>
      <trkpt lat="47.52994" lon="-2.28763">
        <ele>0.62</ele>
        <time>2021-08-02T14:32:17Z</time>
      </trkpt>
      <trkpt lat="47.52852" lon="-2.28578">
        <ele>5.91</ele>
        <time>2021-08-02T14:32:25Z</time>
      </trkpt>
      <trkpt lat="47.52691" lon="-2.28452">
        <ele>13.6</ele>
        <time>2021-08-02T14:32:33Z</time>
      </trkpt>
      <trkpt lat="47.52285" lon="-2.28205">
        <ele>30.42</ele>
        <time>2021-08-02T14:32:52Z</time>
      </trkpt>
      <trkpt lat="47.51849" lon="-2.27944">
        <ele>30.9</ele>
        <time>2021-08-02T14:33:11Z</time>
      </trkpt>
      <trkpt lat="47.51379" lon="-2.27659">
        <ele>18.4</ele>
        <time>2021-08-02T14:33:31Z</time>
      </trkpt>
      <trkpt lat="47.51097" lon="-2.27424">
        <ele>18.88</ele>
        <time>2021-08-02T14:33:44Z</time>
      </trkpt>
      <trkpt lat="47.50558" lon="-2.26926">
        <ele>30.42</ele>
        <time>2021-08-02T14:34:10Z</time>
      </trkpt>
      <trkpt lat="47.50298" lon="-2.26656">
        <ele>33.78</ele>
        <time>2021-08-02T14:34:23Z</time>
      </trkpt>
      <trkpt lat="47.50102" lon="-2.26369">
        <ele>34.26</ele>
        <time>2021-08-02T14:34:34Z</time>
      </trkpt>
      <trkpt lat="47.49946" lon="-2.26041">
        <ele>35.23</ele>
        <time>2021-08-02T14:34:45Z</time>
      </trkpt>
      <trkpt lat="47.49814" lon="-2.25652">
        <ele>36.67</ele>
        <time>2021-08-02T14:34:57Z</time>
      </trkpt>
      <trkpt lat="47.49614" lon="-2.25006">
        <ele>38.11</ele>
        <time>2021-08-02T14:35:16Z</time>
      </trkpt>
      <trkpt lat="47.49452" lon="-2.24585">
        <ele>39.07</ele>
        <time>2021-08-02T14:35:29Z</time>
      </trkpt>
      <trkpt lat="47.49184" lon="-2.23849">
        <ele>37.15</ele>
        <time>2021-08-02T14:35:51Z</time>
      </trkpt>
      <trkpt lat="47.48938" lon="-2.23154">
        <ele>35.71</ele>
        <time>2021-08-02T14:36:12Z</time>
      </trkpt>
      <trkpt lat="47.48751" lon="-2.22502">
        <ele>27.53</ele>
        <time>2021-08-02T14:36:31Z</time>
      </trkpt>
      <trkpt lat="47.48634" lon="-2.21973">
        <ele>19.84</ele>
        <time>2021-08-02T14:36:46Z</time>
      </trkpt>
      <trkpt lat="47.48607" lon="-2.21603">
        <ele>10.23</ele>
        <time>2021-08-02T14:36:56Z</time>
      </trkpt>
      <trkpt lat="47.48596" lon="-2.20906">
        <ele>10.71</ele>
        <time>2021-08-02T14:37:15Z</time>
      </trkpt>
      <trkpt lat="47.48558" lon="-2.20497">
        <ele>18.4</ele>
        <time>2021-08-02T14:37:27Z</time>
      </trkpt>
      <trkpt lat="47.48468" lon="-2.20075">
        <ele>28.02</ele>
        <time>2021-08-02T14:37:40Z</time>
      </trkpt>
      <trkpt lat="47.48286" lon="-2.19446">
        <ele>22.25</ele>
        <time>2021-08-02T14:37:59Z</time>
      </trkpt>
      <trkpt lat="47.48113" lon="-2.189">
        <ele>19.84</ele>
        <time>2021-08-02T14:38:15Z</time>
      </trkpt>
      <trkpt lat="47.47932" lon="-2.18453">
        <ele>27.53</ele>
        <time>2021-08-02T14:38:31Z</time>
      </trkpt>
      <trkpt lat="47.47707" lon="-2.18074">
        <ele>26.57</ele>
        <time>2021-08-02T14:38:45Z</time>
      </trkpt>
      <trkpt lat="47.47516" lon="-2.17815">
        <ele>19.36</ele>
        <time>2021-08-02T14:38:55Z</time>
      </trkpt>
      <trkpt lat="47.47299" lon="-2.17523">
        <ele>15.52</ele>
        <time>2021-08-02T14:39:05Z</time>
      </trkpt>
      <trkpt lat="47.47206" lon="-2.17298">
        <ele>19.36</ele>
        <time>2021-08-02T14:39:13Z</time>
      </trkpt>
      <trkpt lat="47.47129" lon="-2.16984">
        <ele>20.32</ele>
        <time>2021-08-02T14:39:22Z</time>
      </trkpt>
      <trkpt lat="47.47037" lon="-2.16517">
        <ele>23.21</ele>
        <time>2021-08-02T14:39:35Z</time>
      </trkpt>
      <trkpt lat="47.46924" lon="-2.16189">
        <ele>24.65</ele>
        <time>2021-08-02T14:39:45Z</time>
      </trkpt>
      <trkpt lat="47.4678" lon="-2.15903">
        <ele>27.05</ele>
        <time>2021-08-02T14:39:55Z</time>
      </trkpt>
      <trkpt lat="47.46493" lon="-2.15471">
        <ele>28.02</ele>
        <time>2021-08-02T14:40:12Z</time>
      </trkpt>
      <trkpt lat="47.4609" lon="-2.1488">
        <ele>30.42</ele>
        <time>2021-08-02T14:40:35Z</time>
      </trkpt>
      <trkpt lat="47.45763" lon="-2.14363">
        <ele>26.57</ele>
        <time>2021-08-02T14:40:54Z</time>
      </trkpt>
      <trkpt lat="47.45514" lon="-2.13907">
        <ele>21.77</ele>
        <time>2021-08-02T14:41:11Z</time>
      </trkpt>
      <trkpt lat="47.4513" lon="-2.13166">
        <ele>20.32</ele>
        <time>2021-08-02T14:41:37Z</time>
      </trkpt>
      <trkpt lat="47.44839" lon="-2.12555">
        <ele>25.61</ele>
        <time>2021-08-02T14:41:58Z</time>
      </trkpt>
      <trkpt lat="47.4474" lon="-2.12221">
        <ele>26.57</ele>
        <time>2021-08-02T14:42:08Z</time>
      </trkpt>
      <trkpt lat="47.44692" lon="-2.11896">
        <ele>24.65</ele>
        <time>2021-08-02T14:42:17Z</time>
      </trkpt>
      <trkpt lat="47.44692" lon="-2.11526">
        <ele>21.77</ele>
        <time>2021-08-02T14:42:27Z</time>
      </trkpt>
      <trkpt lat="47.44751" lon="-2.11059">
        <ele>17.92</ele>
        <time>2021-08-02T14:42:40Z</time>
      </trkpt>
      <trkpt lat="47.44794" lon="-2.10546">
        <ele>14.08</ele>
        <time>2021-08-02T14:42:54Z</time>
      </trkpt>
      <trkpt lat="47.44796" lon="-2.10043">
        <ele>10.71</ele>
        <time>2021-08-02T14:43:08Z</time>
      </trkpt>
      <trkpt lat="47.44745" lon="-2.09494">
        <ele>14.08</ele>
        <time>2021-08-02T14:43:24Z</time>
      </trkpt>
      <trkpt lat="47.44654" lon="-2.09006">
        <ele>19.36</ele>
        <time>2021-08-02T14:43:39Z</time>
      </trkpt>
      <trkpt lat="47.44544" lon="-2.08607">
        <ele>20.32</ele>
        <time>2021-08-02T14:43:52Z</time>
      </trkpt>
      <trkpt lat="47.44418" lon="-2.08303">
        <ele>17.92</ele>
        <time>2021-08-02T14:44:02Z</time>
      </trkpt>
      <trkpt lat="47.44248" lon="-2.08031">
        <ele>14.56</ele>
        <time>2021-08-02T14:44:11Z</time>
      </trkpt>
      <trkpt lat="47.43972" lon="-2.0769">
        <ele>7.83</ele>
        <time>2021-08-02T14:44:27Z</time>
      </trkpt>
      <trkpt lat="47.43711" lon="-2.07334">
        <ele>6.87</ele>
        <time>2021-08-02T14:44:42Z</time>
      </trkpt>
      <trkpt lat="47.43463" lon="-2.06937">
        <ele>15.52</ele>
        <time>2021-08-02T14:44:57Z</time>
      </trkpt>
      <trkpt lat="47.4319" lon="-2.06528">
        <ele>23.69</ele>
        <time>2021-08-02T14:45:13Z</time>
      </trkpt>
      <trkpt lat="47.42829" lon="-2.06098">
        <ele>33.3</ele>
        <time>2021-08-02T14:45:32Z</time>
      </trkpt>
      <trkpt lat="47.42444" lon="-2.05706">
        <ele>37.63</ele>
        <time>2021-08-02T14:45:51Z</time>
      </trkpt>
      <trkpt lat="47.42243" lon="-2.05433">
        <ele>40.51</ele>
        <time>2021-08-02T14:46:02Z</time>
      </trkpt>
      <trkpt lat="47.42077" lon="-2.0511">
        <ele>39.07</ele>
        <time>2021-08-02T14:46:13Z</time>
      </trkpt>
      <trkpt lat="47.41952" lon="-2.04754">
        <ele>41.95</ele>
        <time>2021-08-02T14:46:24Z</time>
      </trkpt>
      <trkpt lat="47.41865" lon="-2.0436">
        <ele>40.99</ele>
        <time>2021-08-02T14:46:36Z</time>
      </trkpt>
      <trkpt lat="47.4174" lon="-2.03719">
        <ele>40.51</ele>
        <time>2021-08-02T14:46:56Z</time>
      </trkpt>
      <trkpt lat="47.41637" lon="-2.03254">
        <ele>41.47</ele>
        <time>2021-08-02T14:47:10Z</time>
      </trkpt>
      <trkpt lat="47.41508" lon="-2.02853">
        <ele>42.44</ele>
        <time>2021-08-02T14:47:22Z</time>
      </trkpt>
      <trkpt lat="47.41291" lon="-2.02373">
        <ele>44.36</ele>
        <time>2021-08-02T14:47:38Z</time>
      </trkpt>
      <trkpt lat="47.41012" lon="-2.01837">
        <ele>51.57</ele>
        <time>2021-08-02T14:47:56Z</time>
      </trkpt>
      <trkpt lat="47.40784" lon="-2.01497">
        <ele>51.09</ele>
        <time>2021-08-02T14:48:09Z</time>
      </trkpt>
      <trkpt lat="47.40475" lon="-2.01096">
        <ele>53.97</ele>
        <time>2021-08-02T14:48:27Z</time>
      </trkpt>
      <trkpt lat="47.40151" lon="-2.00767">
        <ele>56.37</ele>
        <time>2021-08-02T14:48:43Z</time>
      </trkpt>
      <trkpt lat="47.39718" lon="-2.00332">
        <ele>62.14</ele>
        <time>2021-08-02T14:49:04Z</time>
      </trkpt>
      <trkpt lat="47.39513" lon="-2.00022">
        <ele>65.51</ele>
        <time>2021-08-02T14:49:15Z</time>
      </trkpt>
      <trkpt lat="47.39363" lon="-1.99715">
        <ele>66.47</ele>
        <time>2021-08-02T14:49:27Z</time>
      </trkpt>
      <trkpt lat="47.39184" lon="-1.99294">
        <ele>66.47</ele>
        <time>2021-08-02T14:49:41Z</time>
      </trkpt>
      <trkpt lat="47.38963" lon="-1.98748">
        <ele>66.95</ele>
        <time>2021-08-02T14:49:59Z</time>
      </trkpt>
      <trkpt lat="47.38627" lon="-1.97965">
        <ele>69.35</ele>
        <time>2021-08-02T14:50:25Z</time>
      </trkpt>
      <trkpt lat="47.38451" lon="-1.97518">
        <ele>70.31</ele>
        <time>2021-08-02T14:50:39Z</time>
      </trkpt>
      <trkpt lat="47.38355" lon="-1.97135">
        <ele>67.43</ele>
        <time>2021-08-02T14:50:50Z</time>
      </trkpt>
      <trkpt lat="47.38222" lon="-1.96684">
        <ele>67.43</ele>
        <time>2021-08-02T14:51:03Z</time>
      </trkpt>
      <trkpt lat="47.38046" lon="-1.96275">
        <ele>64.55</ele>
        <time>2021-08-02T14:51:16Z</time>
      </trkpt>
      <trkpt lat="47.37872" lon="-1.95837">
        <ele>70.31</ele>
        <time>2021-08-02T14:51:30Z</time>
      </trkpt>
      <trkpt lat="47.37771" lon="-1.95436">
        <ele>72.24</ele>
        <time>2021-08-02T14:51:42Z</time>
      </trkpt>
      <trkpt lat="47.3769" lon="-1.94857">
        <ele>74.16</ele>
        <time>2021-08-02T14:51:57Z</time>
      </trkpt>
      <trkpt lat="47.37589" lon="-1.94075">
        <ele>73.68</ele>
        <time>2021-08-02T14:52:20Z</time>
      </trkpt>
      <trkpt lat="47.37519" lon="-1.93694">
        <ele>76.56</ele>
        <time>2021-08-02T14:52:31Z</time>
      </trkpt>
      <trkpt lat="47.37396" lon="-1.93307">
        <ele>78.97</ele>
        <time>2021-08-02T14:52:43Z</time>
      </trkpt>
      <trkpt lat="47.3719" lon="-1.9274">
        <ele>78.97</ele>
        <time>2021-08-02T14:53:01Z</time>
      </trkpt>
      <trkpt lat="47.37083" lon="-1.92269">
        <ele>81.37</ele>
        <time>2021-08-02T14:53:15Z</time>
      </trkpt>
      <trkpt lat="47.36925" lon="-1.91524">
        <ele>77.04</ele>
        <time>2021-08-02T14:53:36Z</time>
      </trkpt>
      <trkpt lat="47.36821" lon="-1.91163">
        <ele>77.52</ele>
        <time>2021-08-02T14:53:46Z</time>
      </trkpt>
      <trkpt lat="47.36671" lon="-1.90843">
        <ele>77.04</ele>
        <time>2021-08-02T14:53:56Z</time>
      </trkpt>
      <trkpt lat="47.3638" lon="-1.90397">
        <ele>68.39</ele>
        <time>2021-08-02T14:54:12Z</time>
      </trkpt>
      <trkpt lat="47.36111" lon="-1.89994">
        <ele>77.04</ele>
        <time>2021-08-02T14:54:28Z</time>
      </trkpt>
      <trkpt lat="47.35786" lon="-1.89506">
        <ele>84.25</ele>
        <time>2021-08-02T14:54:48Z</time>
      </trkpt>
      <trkpt lat="47.35566" lon="-1.8912">
        <ele>86.66</ele>
        <time>2021-08-02T14:55:02Z</time>
      </trkpt>
      <trkpt lat="47.35326" lon="-1.88562">
        <ele>84.25</ele>
        <time>2021-08-02T14:55:20Z</time>
      </trkpt>
      <trkpt lat="47.3519" lon="-1.88205">
        <ele>80.89</ele>
        <time>2021-08-02T14:55:32Z</time>
      </trkpt>
      <trkpt lat="47.35002" lon="-1.87611">
        <ele>81.37</ele>
        <time>2021-08-02T14:55:52Z</time>
      </trkpt>
      <trkpt lat="47.34914" lon="-1.873">
        <ele>84.25</ele>
        <time>2021-08-02T14:56:03Z</time>
      </trkpt>
      <trkpt lat="47.34838" lon="-1.8702">
        <ele>85.69</ele>
        <time>2021-08-02T14:56:11Z</time>
      </trkpt>
      <trkpt lat="47.34714" lon="-1.86639">
        <ele>88.1</ele>
        <time>2021-08-02T14:56:23Z</time>
      </trkpt>
      <trkpt lat="47.34542" lon="-1.86051">
        <ele>87.62</ele>
        <time>2021-08-02T14:56:38Z</time>
      </trkpt>
      <trkpt lat="47.34474" lon="-1.85661">
        <ele>86.18</ele>
        <time>2021-08-02T14:56:49Z</time>
      </trkpt>
      <trkpt lat="47.34381" lon="-1.84958">
        <ele>85.69</ele>
        <time>2021-08-02T14:57:08Z</time>
      </trkpt>
      <trkpt lat="47.34314" lon="-1.84475">
        <ele>84.73</ele>
        <time>2021-08-02T14:57:22Z</time>
      </trkpt>
      <trkpt lat="47.34216" lon="-1.83836">
        <ele>82.81</ele>
        <time>2021-08-02T14:57:42Z</time>
      </trkpt>
      <trkpt lat="47.34143" lon="-1.83336">
        <ele>84.25</ele>
        <time>2021-08-02T14:57:58Z</time>
      </trkpt>
      <trkpt lat="47.34093" lon="-1.82973">
        <ele>85.21</ele>
        <time>2021-08-02T14:58:10Z</time>
      </trkpt>
      <trkpt lat="47.34044" lon="-1.82638">
        <ele>85.69</ele>
        <time>2021-08-02T14:58:22Z</time>
      </trkpt>
      <trkpt lat="47.33935" lon="-1.81951">
        <ele>83.77</ele>
        <time>2021-08-02T14:58:42Z</time>
      </trkpt>
      <trkpt lat="47.33872" lon="-1.81567">
        <ele>82.81</ele>
        <time>2021-08-02T14:58:56Z</time>
      </trkpt>
      <trkpt lat="47.33771" lon="-1.81014">
        <ele>80.89</ele>
        <time>2021-08-02T14:59:15Z</time>
      </trkpt>
      <trkpt lat="47.33689" lon="-1.80563">
        <ele>80.41</ele>
        <time>2021-08-02T14:59:31Z</time>
      </trkpt>
      <trkpt lat="47.33607" lon="-1.80147">
        <ele>81.85</ele>
        <time>2021-08-02T14:59:45Z</time>
      </trkpt>
      <trkpt lat="47.33492" lon="-1.79681">
        <ele>80.89</ele>
        <time>2021-08-02T15:00:00Z</time>
      </trkpt>
      <trkpt lat="47.33348" lon="-1.7925">
        <ele>81.37</ele>
        <time>2021-08-02T15:00:12Z</time>
      </trkpt>
      <trkpt lat="47.33174" lon="-1.7886">
        <ele>82.33</ele>
        <time>2021-08-02T15:00:25Z</time>
      </trkpt>
      <trkpt lat="47.32952" lon="-1.78472">
        <ele>81.85</ele>
        <time>2021-08-02T15:00:38Z</time>
      </trkpt>
      <trkpt lat="47.32662" lon="-1.78088">
        <ele>77.52</ele>
        <time>2021-08-02T15:00:53Z</time>
      </trkpt>
      <trkpt lat="47.32343" lon="-1.77765">
        <ele>71.76</ele>
        <time>2021-08-02T15:01:08Z</time>
      </trkpt>
      <trkpt lat="47.31923" lon="-1.77398">
        <ele>73.2</ele>
        <time>2021-08-02T15:01:27Z</time>
      </trkpt>
      <trkpt lat="47.31417" lon="-1.76961">
        <ele>76.56</ele>
        <time>2021-08-02T15:01:50Z</time>
      </trkpt>
      <trkpt lat="47.31042" lon="-1.76604">
        <ele>82.33</ele>
        <time>2021-08-02T15:02:08Z</time>
      </trkpt>
      <trkpt lat="47.30731" lon="-1.76267">
        <ele>82.33</ele>
        <time>2021-08-02T15:02:25Z</time>
      </trkpt>
      <trkpt lat="47.30546" lon="-1.76062">
        <ele>76.56</ele>
        <time>2021-08-02T15:02:35Z</time>
      </trkpt>
      <trkpt lat="47.30248" lon="-1.75716">
        <ele>78</ele>
        <time>2021-08-02T15:02:50Z</time>
      </trkpt>
      <trkpt lat="47.30064" lon="-1.75473">
        <ele>78.48</ele>
        <time>2021-08-02T15:03:01Z</time>
      </trkpt>
      <trkpt lat="47.29854" lon="-1.75192">
        <ele>77.04</ele>
        <time>2021-08-02T15:03:13Z</time>
      </trkpt>
      <trkpt lat="47.29565" lon="-1.74807">
        <ele>79.45</ele>
        <time>2021-08-02T15:03:29Z</time>
      </trkpt>
      <trkpt lat="47.29252" lon="-1.74376">
        <ele>78.97</ele>
        <time>2021-08-02T15:03:47Z</time>
      </trkpt>
      <trkpt lat="47.29058" lon="-1.74074">
        <ele>78.48</ele>
        <time>2021-08-02T15:04:00Z</time>
      </trkpt>
      <trkpt lat="47.28894" lon="-1.73827">
        <ele>78.48</ele>
        <time>2021-08-02T15:04:11Z</time>
      </trkpt>
      <trkpt lat="47.28632" lon="-1.73494">
        <ele>77.52</ele>
        <time>2021-08-02T15:04:25Z</time>
      </trkpt>
      <trkpt lat="47.28373" lon="-1.73167">
        <ele>84.73</ele>
        <time>2021-08-02T15:04:41Z</time>
      </trkpt>
      <trkpt lat="47.2811" lon="-1.72818">
        <ele>84.73</ele>
        <time>2021-08-02T15:04:57Z</time>
      </trkpt>
      <trkpt lat="47.28001" lon="-1.72668">
        <ele>83.29</ele>
        <time>2021-08-02T15:05:06Z</time>
      </trkpt>
      <trkpt lat="47.27874" lon="-1.72494">
        <ele>78.48</ele>
        <time>2021-08-02T15:05:19Z</time>
      </trkpt>
      <trkpt lat="47.27752" lon="-1.72329">
        <ele>76.08</ele>
        <time>2021-08-02T15:05:30Z</time>
      </trkpt>
      <trkpt lat="47.27544" lon="-1.72075">
        <ele>74.16</ele>
        <time>2021-08-02T15:05:45Z</time>
      </trkpt>
      <trkpt lat="47.27344" lon="-1.71849">
        <ele>69.83</ele>
        <time>2021-08-02T15:05:59Z</time>
      </trkpt>
      <trkpt lat="47.27072" lon="-1.71548">
        <ele>66.95</ele>
        <time>2021-08-02T15:06:15Z</time>
      </trkpt>
      <trkpt lat="47.26781" lon="-1.71198">
        <ele>65.51</ele>
        <time>2021-08-02T15:06:31Z</time>
      </trkpt>
      <trkpt lat="47.26544" lon="-1.70864">
        <ele>65.03</ele>
        <time>2021-08-02T15:06:47Z</time>
      </trkpt>
      <trkpt lat="47.26339" lon="-1.70525">
        <ele>63.58</ele>
        <time>2021-08-02T15:07:02Z</time>
      </trkpt>
      <trkpt lat="47.26121" lon="-1.70108">
        <ele>59.26</ele>
        <time>2021-08-02T15:07:19Z</time>
      </trkpt>
      <trkpt lat="47.25916" lon="-1.69631">
        <ele>56.37</ele>
        <time>2021-08-02T15:07:37Z</time>
      </trkpt>
      <trkpt lat="47.25753" lon="-1.69177">
        <ele>53.01</ele>
        <time>2021-08-02T15:07:52Z</time>
      </trkpt>
      <trkpt lat="47.25613" lon="-1.68668">
        <ele>46.76</ele>
        <time>2021-08-02T15:08:07Z</time>
      </trkpt>
      <trkpt lat="47.25486" lon="-1.68239">
        <ele>44.36</ele>
        <time>2021-08-02T15:08:20Z</time>
      </trkpt>
      <trkpt lat="47.25379" lon="-1.68075">
        <ele>50.61</ele>
        <time>2021-08-02T15:08:27Z</time>
      </trkpt>
      <trkpt lat="47.2519" lon="-1.67919">
        <ele>53.01</ele>
        <time>2021-08-02T15:08:36Z</time>
      </trkpt>
      <trkpt lat="47.24881" lon="-1.67668">
        <ele>58.3</ele>
        <time>2021-08-02T15:08:52Z</time>
      </trkpt>
      <trkpt lat="47.24551" lon="-1.67336">
        <ele>53.01</ele>
        <time>2021-08-02T15:09:07Z</time>
      </trkpt>
      <trkpt lat="47.24303" lon="-1.67028">
        <ele>49.16</ele>
        <time>2021-08-02T15:09:21Z</time>
      </trkpt>
      <trkpt lat="47.24053" lon="-1.66651">
        <ele>49.65</ele>
        <time>2021-08-02T15:09:36Z</time>
      </trkpt>
      <trkpt lat="47.2389" lon="-1.66345">
        <ele>51.57</ele>
        <time>2021-08-02T15:09:48Z</time>
      </trkpt>
      <trkpt lat="47.23734" lon="-1.65958">
        <ele>52.53</ele>
        <time>2021-08-02T15:10:03Z</time>
      </trkpt>
      <trkpt lat="47.23575" lon="-1.65506">
        <ele>51.09</ele>
        <time>2021-08-02T15:10:21Z</time>
      </trkpt>
      <trkpt lat="47.23381" lon="-1.64971">
        <ele>50.13</ele>
        <time>2021-08-02T15:10:42Z</time>
      </trkpt>
      <trkpt lat="47.2324" lon="-1.64646">
        <ele>48.68</ele>
        <time>2021-08-02T15:10:54Z</time>
      </trkpt>
      <trkpt lat="47.2305" lon="-1.64228">
        <ele>46.28</ele>
        <time>2021-08-02T15:11:10Z</time>
      </trkpt>
      <trkpt lat="47.22926" lon="-1.63898">
        <ele>45.8</ele>
        <time>2021-08-02T15:11:24Z</time>
      </trkpt>
      <trkpt lat="47.22846" lon="-1.63658">
        <ele>43.88</ele>
        <time>2021-08-02T15:11:36Z</time>
      </trkpt>
      <trkpt lat="47.22822" lon="-1.63585">
        <ele>44.36</ele>
        <time>2021-08-02T15:11:41Z</time>
      </trkpt>
      <trkpt lat="47.22822" lon="-1.63585">
        <ele>44.36</ele>
        <time>2021-08-02T15:11:42Z</time>
      </trkpt>
      <trkpt lat="47.22805" lon="-1.63589">
        <ele>44.84</ele>
        <time>2021-08-02T15:11:43Z</time>
      </trkpt>
      <trkpt lat="47.22802" lon="-1.63588">
        <ele>44.84</ele>
        <time>2021-08-02T15:11:44Z</time>
      </trkpt>
      <trkpt lat="47.22802" lon="-1.63588">
        <ele>44.36</ele>
        <time>2021-08-02T15:11:45Z</time>
      </trkpt>
      <trkpt lat="47.22798" lon="-1.63585">
        <ele>44.84</ele>
        <time>2021-08-02T15:12:02Z</time>
      </trkpt>
      <trkpt lat="47.22775" lon="-1.63574">
        <ele>44.84</ele>
        <time>2021-08-02T15:12:07Z</time>
      </trkpt>
      <trkpt lat="47.22774" lon="-1.63568">
        <ele>44.84</ele>
        <time>2021-08-02T15:12:08Z</time>
      </trkpt>
      <trkpt lat="47.22777" lon="-1.63559">
        <ele>44.84</ele>
        <time>2021-08-02T15:12:09Z</time>
      </trkpt>
      <trkpt lat="47.2278" lon="-1.63556">
        <ele>44.84</ele>
        <time>2021-08-02T15:12:10Z</time>
      </trkpt>
      <trkpt lat="47.2278" lon="-1.63556">
        <ele>44.84</ele>
        <time>2021-08-02T15:12:11Z</time>
      </trkpt>
      <trkpt lat="47.22783" lon="-1.63553">
        <ele>44.84</ele>
        <time>2021-08-02T15:12:12Z</time>
      </trkpt>
      <trkpt lat="47.22784" lon="-1.63547">
        <ele>44.84</ele>
        <time>2021-08-02T15:12:13Z</time>
      </trkpt>
      <trkpt lat="47.22786" lon="-1.63541">
        <ele>44.84</ele>
        <time>2021-08-02T15:12:14Z</time>
      </trkpt>
      <trkpt lat="47.22789" lon="-1.63533">
        <ele>44.84</ele>
        <time>2021-08-02T15:12:15Z</time>
      </trkpt>
      <trkpt lat="47.22785" lon="-1.63514">
        <ele>44.84</ele>
        <time>2021-08-02T15:12:16Z</time>
      </trkpt>
      <trkpt lat="47.22782" lon="-1.63503">
        <ele>44.36</ele>
        <time>2021-08-02T15:12:17Z</time>
      </trkpt>
      <trkpt lat="47.22782" lon="-1.63503">
        <ele>44.36</ele>
        <time>2021-08-02T15:12:18Z</time>
      </trkpt>
      <trkpt lat="47.22742" lon="-1.6335">
        <ele>40.99</ele>
        <time>2021-08-02T15:12:27Z</time>
      </trkpt>
      <trkpt lat="47.22691" lon="-1.63117">
        <ele>37.15</ele>
        <time>2021-08-02T15:12:37Z</time>
      </trkpt>
      <trkpt lat="47.22628" lon="-1.62813">
        <ele>37.15</ele>
        <time>2021-08-02T15:12:50Z</time>
      </trkpt>
      <trkpt lat="47.2255" lon="-1.62419">
        <ele>39.55</ele>
        <time>2021-08-02T15:13:06Z</time>
      </trkpt>
      <trkpt lat="47.225" lon="-1.62306">
        <ele>47.72</ele>
        <time>2021-08-02T15:13:12Z</time>
      </trkpt>
      <trkpt lat="47.22416" lon="-1.6223">
        <ele>44.84</ele>
        <time>2021-08-02T15:13:20Z</time>
      </trkpt>
      <trkpt lat="47.22308" lon="-1.62207">
        <ele>40.99</ele>
        <time>2021-08-02T15:13:28Z</time>
      </trkpt>
      <trkpt lat="47.22125" lon="-1.62246">
        <ele>30.9</ele>
        <time>2021-08-02T15:13:37Z</time>
      </trkpt>
      <trkpt lat="47.2195" lon="-1.62338">
        <ele>32.34</ele>
        <time>2021-08-02T15:13:47Z</time>
      </trkpt>
      <trkpt lat="47.21573" lon="-1.62546">
        <ele>34.74</ele>
        <time>2021-08-02T15:14:04Z</time>
      </trkpt>
      <trkpt lat="47.21385" lon="-1.62616">
        <ele>29.94</ele>
        <time>2021-08-02T15:14:14Z</time>
      </trkpt>
      <trkpt lat="47.21131" lon="-1.62693">
        <ele>27.53</ele>
        <time>2021-08-02T15:14:28Z</time>
      </trkpt>
      <trkpt lat="47.20945" lon="-1.62685">
        <ele>26.09</ele>
        <time>2021-08-02T15:14:37Z</time>
      </trkpt>
      <trkpt lat="47.20747" lon="-1.62602">
        <ele>24.17</ele>
        <time>2021-08-02T15:14:47Z</time>
      </trkpt>
      <trkpt lat="47.20654" lon="-1.62528">
        <ele>24.17</ele>
        <time>2021-08-02T15:14:55Z</time>
      </trkpt>
      <trkpt lat="47.20419" lon="-1.62328">
        <ele>19.84</ele>
        <time>2021-08-02T15:15:14Z</time>
      </trkpt>
      <trkpt lat="47.20227" lon="-1.62153">
        <ele>17.44</ele>
        <time>2021-08-02T15:15:28Z</time>
      </trkpt>
      <trkpt lat="47.20086" lon="-1.61963">
        <ele>19.36</ele>
        <time>2021-08-02T15:15:38Z</time>
      </trkpt>
      <trkpt lat="47.19959" lon="-1.61734">
        <ele>21.29</ele>
        <time>2021-08-02T15:15:48Z</time>
      </trkpt>
      <trkpt lat="47.19815" lon="-1.6156">
        <ele>32.34</ele>
        <time>2021-08-02T15:15:58Z</time>
      </trkpt>
      <trkpt lat="47.19654" lon="-1.61439">
        <ele>41.95</ele>
        <time>2021-08-02T15:16:08Z</time>
      </trkpt>
      <trkpt lat="47.19441" lon="-1.6137">
        <ele>54.93</ele>
        <time>2021-08-02T15:16:20Z</time>
      </trkpt>
      <trkpt lat="47.19223" lon="-1.61366">
        <ele>53.01</ele>
        <time>2021-08-02T15:16:32Z</time>
      </trkpt>
      <trkpt lat="47.18949" lon="-1.61369">
        <ele>40.51</ele>
        <time>2021-08-02T15:16:47Z</time>
      </trkpt>
      <trkpt lat="47.18737" lon="-1.61371">
        <ele>25.61</ele>
        <time>2021-08-02T15:16:59Z</time>
      </trkpt>
      <trkpt lat="47.18498" lon="-1.61374">
        <ele>9.75</ele>
        <time>2021-08-02T15:17:11Z</time>
      </trkpt>
      <trkpt lat="47.18312" lon="-1.61347">
        <ele>3.5</ele>
        <time>2021-08-02T15:17:20Z</time>
      </trkpt>
      <trkpt lat="47.1818" lon="-1.61246">
        <ele>2.54</ele>
        <time>2021-08-02T15:17:27Z</time>
      </trkpt>
      <trkpt lat="47.18094" lon="-1.61098">
        <ele>4.94</ele>
        <time>2021-08-02T15:17:34Z</time>
      </trkpt>
      <trkpt lat="47.18043" lon="-1.60919">
        <ele>4.94</ele>
        <time>2021-08-02T15:17:42Z</time>
      </trkpt>
      <trkpt lat="47.17976" lon="-1.60639">
        <ele>5.42</ele>
        <time>2021-08-02T15:17:55Z</time>
      </trkpt>
      <trkpt lat="47.17868" lon="-1.60304">
        <ele>2.54</ele>
        <time>2021-08-02T15:18:08Z</time>
      </trkpt>
      <trkpt lat="47.17739" lon="-1.60014">
        <ele>2.54</ele>
        <time>2021-08-02T15:18:19Z</time>
      </trkpt>
      <trkpt lat="47.17548" lon="-1.59682">
        <ele>3.02</ele>
        <time>2021-08-02T15:18:33Z</time>
      </trkpt>
      <trkpt lat="47.17283" lon="-1.5923">
        <ele>9.75</ele>
        <time>2021-08-02T15:18:52Z</time>
      </trkpt>
      <trkpt lat="47.17148" lon="-1.58944">
        <ele>13.12</ele>
        <time>2021-08-02T15:19:03Z</time>
      </trkpt>
      <trkpt lat="47.17058" lon="-1.58645">
        <ele>16</ele>
        <time>2021-08-02T15:19:14Z</time>
      </trkpt>
      <trkpt lat="47.16965" lon="-1.58172">
        <ele>18.4</ele>
        <time>2021-08-02T15:19:28Z</time>
      </trkpt>
      <trkpt lat="47.16861" lon="-1.57798">
        <ele>21.29</ele>
        <time>2021-08-02T15:19:40Z</time>
      </trkpt>
      <trkpt lat="47.16751" lon="-1.57518">
        <ele>23.21</ele>
        <time>2021-08-02T15:19:51Z</time>
      </trkpt>
      <trkpt lat="47.16559" lon="-1.5706">
        <ele>21.29</ele>
        <time>2021-08-02T15:20:08Z</time>
      </trkpt>
      <trkpt lat="47.16352" lon="-1.56529">
        <ele>19.36</ele>
        <time>2021-08-02T15:20:26Z</time>
      </trkpt>
      <trkpt lat="47.16211" lon="-1.56052">
        <ele>19.84</ele>
        <time>2021-08-02T15:20:42Z</time>
      </trkpt>
      <trkpt lat="47.16103" lon="-1.55627">
        <ele>21.29</ele>
        <time>2021-08-02T15:20:57Z</time>
      </trkpt>
      <trkpt lat="47.15984" lon="-1.55121">
        <ele>22.73</ele>
        <time>2021-08-02T15:21:13Z</time>
      </trkpt>
      <trkpt lat="47.15919" lon="-1.54669">
        <ele>25.13</ele>
        <time>2021-08-02T15:21:27Z</time>
      </trkpt>
      <trkpt lat="47.15901" lon="-1.54222">
        <ele>25.13</ele>
        <time>2021-08-02T15:21:41Z</time>
      </trkpt>
      <trkpt lat="47.15916" lon="-1.53939">
        <ele>23.69</ele>
        <time>2021-08-02T15:21:50Z</time>
      </trkpt>
      <trkpt lat="47.15932" lon="-1.53785">
        <ele>26.09</ele>
        <time>2021-08-02T15:21:57Z</time>
      </trkpt>
      <trkpt lat="47.15944" lon="-1.53705">
        <ele>26.09</ele>
        <time>2021-08-02T15:22:04Z</time>
      </trkpt>
      <trkpt lat="47.15966" lon="-1.53572">
        <ele>26.09</ele>
        <time>2021-08-02T15:22:22Z</time>
      </trkpt>
      <trkpt lat="47.15988" lon="-1.53475">
        <ele>25.61</ele>
        <time>2021-08-02T15:22:36Z</time>
      </trkpt>
      <trkpt lat="47.15998" lon="-1.53433">
        <ele>24.65</ele>
        <time>2021-08-02T15:22:53Z</time>
      </trkpt>
      <trkpt lat="47.16006" lon="-1.534">
        <ele>24.17</ele>
        <time>2021-08-02T15:23:12Z</time>
      </trkpt>
      <trkpt lat="47.16026" lon="-1.53316">
        <ele>23.21</ele>
        <time>2021-08-02T15:23:29Z</time>
      </trkpt>
      <trkpt lat="47.1605" lon="-1.53237">
        <ele>22.25</ele>
        <time>2021-08-02T15:23:46Z</time>
      </trkpt>
      <trkpt lat="47.1608" lon="-1.53148">
        <ele>21.29</ele>
        <time>2021-08-02T15:23:56Z</time>
      </trkpt>
      <trkpt lat="47.16158" lon="-1.52941">
        <ele>17.44</ele>
        <time>2021-08-02T15:24:14Z</time>
      </trkpt>
      <trkpt lat="47.16242" lon="-1.52763">
        <ele>12.63</ele>
        <time>2021-08-02T15:24:28Z</time>
      </trkpt>
      <trkpt lat="47.16319" lon="-1.52624">
        <ele>9.27</ele>
        <time>2021-08-02T15:24:40Z</time>
      </trkpt>
      <trkpt lat="47.16411" lon="-1.52483">
        <ele>6.39</ele>
        <time>2021-08-02T15:24:53Z</time>
      </trkpt>
      <trkpt lat="47.16529" lon="-1.5233">
        <ele>4.94</ele>
        <time>2021-08-02T15:25:05Z</time>
      </trkpt>
      <trkpt lat="47.16669" lon="-1.52182">
        <ele>1.1</ele>
        <time>2021-08-02T15:25:20Z</time>
      </trkpt>
      <trkpt lat="47.16704" lon="-1.52151">
        <ele>0.14</ele>
        <time>2021-08-02T15:25:26Z</time>
      </trkpt>
      <trkpt lat="47.16756" lon="-1.52104">
        <ele>-0.82</ele>
        <time>2021-08-02T15:25:36Z</time>
      </trkpt>
      <trkpt lat="47.16844" lon="-1.52024">
        <ele>-2.27</ele>
        <time>2021-08-02T15:25:45Z</time>
      </trkpt>
      <trkpt lat="47.17001" lon="-1.51876">
        <ele>-0.82</ele>
        <time>2021-08-02T15:25:57Z</time>
      </trkpt>
      <trkpt lat="47.17221" lon="-1.51612">
        <ele>9.27</ele>
        <time>2021-08-02T15:26:12Z</time>
      </trkpt>
      <trkpt lat="47.1738" lon="-1.51356">
        <ele>12.15</ele>
        <time>2021-08-02T15:26:23Z</time>
      </trkpt>
      <trkpt lat="47.17525" lon="-1.51044">
        <ele>7.83</ele>
        <time>2021-08-02T15:26:34Z</time>
      </trkpt>
      <trkpt lat="47.1772" lon="-1.50666">
        <ele>5.42</ele>
        <time>2021-08-02T15:26:48Z</time>
      </trkpt>
      <trkpt lat="47.17898" lon="-1.50428">
        <ele>8.31</ele>
        <time>2021-08-02T15:26:59Z</time>
      </trkpt>
      <trkpt lat="47.18129" lon="-1.50214">
        <ele>10.23</ele>
        <time>2021-08-02T15:27:11Z</time>
      </trkpt>
      <trkpt lat="47.18335" lon="-1.49992">
        <ele>14.56</ele>
        <time>2021-08-02T15:27:22Z</time>
      </trkpt>
      <trkpt lat="47.18542" lon="-1.49701">
        <ele>18.88</ele>
        <time>2021-08-02T15:27:34Z</time>
      </trkpt>
      <trkpt lat="47.18723" lon="-1.49454">
        <ele>27.05</ele>
        <time>2021-08-02T15:27:46Z</time>
      </trkpt>
      <trkpt lat="47.19026" lon="-1.4912">
        <ele>23.69</ele>
        <time>2021-08-02T15:28:04Z</time>
      </trkpt>
      <trkpt lat="47.19146" lon="-1.4899">
        <ele>17.92</ele>
        <time>2021-08-02T15:28:14Z</time>
      </trkpt>
      <trkpt lat="47.19148" lon="-1.48965">
        <ele>18.4</ele>
        <time>2021-08-02T15:28:15Z</time>
      </trkpt>
      <trkpt lat="47.19154" lon="-1.48949">
        <ele>17.92</ele>
        <time>2021-08-02T15:28:16Z</time>
      </trkpt>
      <trkpt lat="47.19159" lon="-1.48934">
        <ele>18.4</ele>
        <time>2021-08-02T15:28:17Z</time>
      </trkpt>
      <trkpt lat="47.19162" lon="-1.48921">
        <ele>18.88</ele>
        <time>2021-08-02T15:28:18Z</time>
      </trkpt>
      <trkpt lat="47.19164" lon="-1.48906">
        <ele>18.4</ele>
        <time>2021-08-02T15:28:19Z</time>
      </trkpt>
      <trkpt lat="47.19176" lon="-1.48816">
        <ele>21.29</ele>
        <time>2021-08-02T15:28:28Z</time>
      </trkpt>
      <trkpt lat="47.19176" lon="-1.48792">
        <ele>23.21</ele>
        <time>2021-08-02T15:28:39Z</time>
      </trkpt>
      <trkpt lat="47.19176" lon="-1.48785">
        <ele>23.21</ele>
        <time>2021-08-02T15:28:40Z</time>
      </trkpt>
      <trkpt lat="47.19176" lon="-1.48777">
        <ele>23.21</ele>
        <time>2021-08-02T15:28:41Z</time>
      </trkpt>
      <trkpt lat="47.19179" lon="-1.48771">
        <ele>23.69</ele>
        <time>2021-08-02T15:28:42Z</time>
      </trkpt>
      <trkpt lat="47.19183" lon="-1.48764">
        <ele>23.21</ele>
        <time>2021-08-02T15:28:43Z</time>
      </trkpt>
      <trkpt lat="47.19187" lon="-1.48758">
        <ele>23.21</ele>
        <time>2021-08-02T15:28:44Z</time>
      </trkpt>
      <trkpt lat="47.19193" lon="-1.48755">
        <ele>23.21</ele>
        <time>2021-08-02T15:28:45Z</time>
      </trkpt>
      <trkpt lat="47.19199" lon="-1.48755">
        <ele>22.73</ele>
        <time>2021-08-02T15:28:46Z</time>
      </trkpt>
      <trkpt lat="47.19205" lon="-1.48758">
        <ele>21.77</ele>
        <time>2021-08-02T15:28:47Z</time>
      </trkpt>
      <trkpt lat="47.1921" lon="-1.48764">
        <ele>21.77</ele>
        <time>2021-08-02T15:28:48Z</time>
      </trkpt>
      <trkpt lat="47.19222" lon="-1.48775">
        <ele>21.77</ele>
        <time>2021-08-02T15:28:49Z</time>
      </trkpt>
      <trkpt lat="47.19222" lon="-1.48775">
        <ele>21.77</ele>
        <time>2021-08-02T15:28:50Z</time>
      </trkpt>
      <trkpt lat="47.19229" lon="-1.48781">
        <ele>21.29</ele>
        <time>2021-08-02T15:28:51Z</time>
      </trkpt>
      <trkpt lat="47.19236" lon="-1.48786">
        <ele>20.81</ele>
        <time>2021-08-02T15:28:52Z</time>
      </trkpt>
      <trkpt lat="47.19244" lon="-1.48788">
        <ele>19.84</ele>
        <time>2021-08-02T15:28:53Z</time>
      </trkpt>
      <trkpt lat="47.19291" lon="-1.48791">
        <ele>14.08</ele>
        <time>2021-08-02T15:28:57Z</time>
      </trkpt>
      <trkpt lat="47.19303" lon="-1.48788">
        <ele>13.12</ele>
        <time>2021-08-02T15:28:58Z</time>
      </trkpt>
      <trkpt lat="47.19317" lon="-1.48785">
        <ele>12.63</ele>
        <time>2021-08-02T15:28:59Z</time>
      </trkpt>
      <trkpt lat="47.19331" lon="-1.48782">
        <ele>11.19</ele>
        <time>2021-08-02T15:29:00Z</time>
      </trkpt>
      <trkpt lat="47.19346" lon="-1.48779">
        <ele>11.19</ele>
        <time>2021-08-02T15:29:01Z</time>
      </trkpt>
      <trkpt lat="47.19363" lon="-1.4877">
        <ele>10.23</ele>
        <time>2021-08-02T15:29:02Z</time>
      </trkpt>
      <trkpt lat="47.19504" lon="-1.48657">
        <ele>7.83</ele>
        <time>2021-08-02T15:29:11Z</time>
      </trkpt>
      <trkpt lat="47.1972" lon="-1.48524">
        <ele>9.27</ele>
        <time>2021-08-02T15:29:22Z</time>
      </trkpt>
      <trkpt lat="47.19993" lon="-1.4842">
        <ele>9.27</ele>
        <time>2021-08-02T15:29:35Z</time>
      </trkpt>
      <trkpt lat="47.20221" lon="-1.48384">
        <ele>8.79</ele>
        <time>2021-08-02T15:29:46Z</time>
      </trkpt>
      <trkpt lat="47.20546" lon="-1.48375">
        <ele>8.79</ele>
        <time>2021-08-02T15:30:01Z</time>
      </trkpt>
      <trkpt lat="47.20745" lon="-1.48429">
        <ele>10.71</ele>
        <time>2021-08-02T15:30:11Z</time>
      </trkpt>
      <trkpt lat="47.2096" lon="-1.48505">
        <ele>7.35</ele>
        <time>2021-08-02T15:30:22Z</time>
      </trkpt>
      <trkpt lat="47.21099" lon="-1.48485">
        <ele>5.91</ele>
        <time>2021-08-02T15:30:29Z</time>
      </trkpt>
      <trkpt lat="47.2123" lon="-1.48394">
        <ele>4.46</ele>
        <time>2021-08-02T15:30:36Z</time>
      </trkpt>
      <trkpt lat="47.21331" lon="-1.48234">
        <ele>1.1</ele>
        <time>2021-08-02T15:30:43Z</time>
      </trkpt>
      <trkpt lat="47.21461" lon="-1.48017">
        <ele>4.46</ele>
        <time>2021-08-02T15:30:52Z</time>
      </trkpt>
      <trkpt lat="47.21681" lon="-1.47809">
        <ele>0.62</ele>
        <time>2021-08-02T15:31:04Z</time>
      </trkpt>
      <trkpt lat="47.22048" lon="-1.47476">
        <ele>-0.82</ele>
        <time>2021-08-02T15:31:24Z</time>
      </trkpt>
      <trkpt lat="47.22217" lon="-1.47329">
        <ele>-0.34</ele>
        <time>2021-08-02T15:31:34Z</time>
      </trkpt>
      <trkpt lat="47.22431" lon="-1.4713">
        <ele>0.62</ele>
        <time>2021-08-02T15:31:47Z</time>
      </trkpt>
      <trkpt lat="47.22547" lon="-1.46959">
        <ele>2.54</ele>
        <time>2021-08-02T15:31:56Z</time>
      </trkpt>
      <trkpt lat="47.22603" lon="-1.46791">
        <ele>1.58</ele>
        <time>2021-08-02T15:32:04Z</time>
      </trkpt>
      <trkpt lat="47.22619" lon="-1.46743">
        <ele>2.06</ele>
        <time>2021-08-02T15:32:08Z</time>
      </trkpt>
      <trkpt lat="47.22622" lon="-1.46737">
        <ele>2.06</ele>
        <time>2021-08-02T15:32:09Z</time>
      </trkpt>
      <trkpt lat="47.22624" lon="-1.4673">
        <ele>2.54</ele>
        <time>2021-08-02T15:32:10Z</time>
      </trkpt>
      <trkpt lat="47.22626" lon="-1.46722">
        <ele>2.54</ele>
        <time>2021-08-02T15:32:11Z</time>
      </trkpt>
      <trkpt lat="47.22626" lon="-1.46713">
        <ele>2.54</ele>
        <time>2021-08-02T15:32:12Z</time>
      </trkpt>
      <trkpt lat="47.22627" lon="-1.46705">
        <ele>2.54</ele>
        <time>2021-08-02T15:32:13Z</time>
      </trkpt>
      <trkpt lat="47.22631" lon="-1.46699">
        <ele>2.54</ele>
        <time>2021-08-02T15:32:14Z</time>
      </trkpt>
      <trkpt lat="47.22636" lon="-1.46693">
        <ele>2.54</ele>
        <time>2021-08-02T15:32:15Z</time>
      </trkpt>
      <trkpt lat="47.22695" lon="-1.46604">
        <ele>-0.82</ele>
        <time>2021-08-02T15:32:23Z</time>
      </trkpt>
      <trkpt lat="47.22702" lon="-1.46589">
        <ele>-0.34</ele>
        <time>2021-08-02T15:32:24Z</time>
      </trkpt>
      <trkpt lat="47.22709" lon="-1.46574">
        <ele>-1.3</ele>
        <time>2021-08-02T15:32:25Z</time>
      </trkpt>
      <trkpt lat="47.22714" lon="-1.46557">
        <ele>-1.3</ele>
        <time>2021-08-02T15:32:26Z</time>
      </trkpt>
      <trkpt lat="47.22719" lon="-1.46539">
        <ele>-1.79</ele>
        <time>2021-08-02T15:32:27Z</time>
      </trkpt>
      <trkpt lat="47.22719" lon="-1.46519">
        <ele>-0.34</ele>
        <time>2021-08-02T15:32:28Z</time>
      </trkpt>
      <trkpt lat="47.22719" lon="-1.465">
        <ele>1.58</ele>
        <time>2021-08-02T15:32:29Z</time>
      </trkpt>
      <trkpt lat="47.22718" lon="-1.4648">
        <ele>1.1</ele>
        <time>2021-08-02T15:32:30Z</time>
      </trkpt>
      <trkpt lat="47.22706" lon="-1.46438">
        <ele>0.14</ele>
        <time>2021-08-02T15:32:31Z</time>
      </trkpt>
      <trkpt lat="47.22706" lon="-1.46438">
        <ele>-0.82</ele>
        <time>2021-08-02T15:32:32Z</time>
      </trkpt>
      <trkpt lat="47.22691" lon="-1.46397">
        <ele>-1.79</ele>
        <time>2021-08-02T15:32:33Z</time>
      </trkpt>
      <trkpt lat="47.22691" lon="-1.46397">
        <ele>-2.27</ele>
        <time>2021-08-02T15:32:34Z</time>
      </trkpt>
      <trkpt lat="47.22542" lon="-1.46182">
        <ele>-1.3</ele>
        <time>2021-08-02T15:32:44Z</time>
      </trkpt>
      <trkpt lat="47.22354" lon="-1.45958">
        <ele>-4.67</ele>
        <time>2021-08-02T15:32:56Z</time>
      </trkpt>
      <trkpt lat="47.22055" lon="-1.45664">
        <ele>-1.79</ele>
        <time>2021-08-02T15:33:11Z</time>
      </trkpt>
      <trkpt lat="47.21694" lon="-1.45354">
        <ele>-0.82</ele>
        <time>2021-08-02T15:33:28Z</time>
      </trkpt>
      <trkpt lat="47.21426" lon="-1.45198">
        <ele>-2.75</ele>
        <time>2021-08-02T15:33:40Z</time>
      </trkpt>
      <trkpt lat="47.21119" lon="-1.45103">
        <ele>-0.82</ele>
        <time>2021-08-02T15:33:53Z</time>
      </trkpt>
      <trkpt lat="47.20754" lon="-1.45074">
        <ele>-0.34</ele>
        <time>2021-08-02T15:34:08Z</time>
      </trkpt>
      <trkpt lat="47.20378" lon="-1.45034">
        <ele>2.54</ele>
        <time>2021-08-02T15:34:24Z</time>
      </trkpt>
      <trkpt lat="47.20089" lon="-1.44905">
        <ele>8.31</ele>
        <time>2021-08-02T15:34:36Z</time>
      </trkpt>
      <trkpt lat="47.19905" lon="-1.44765">
        <ele>11.19</ele>
        <time>2021-08-02T15:34:46Z</time>
      </trkpt>
      <trkpt lat="47.19689" lon="-1.44519">
        <ele>13.12</ele>
        <time>2021-08-02T15:34:58Z</time>
      </trkpt>
      <trkpt lat="47.19525" lon="-1.44241">
        <ele>16</ele>
        <time>2021-08-02T15:35:09Z</time>
      </trkpt>
      <trkpt lat="47.1924" lon="-1.43616">
        <ele>22.73</ele>
        <time>2021-08-02T15:35:31Z</time>
      </trkpt>
      <trkpt lat="47.19024" lon="-1.43128">
        <ele>30.42</ele>
        <time>2021-08-02T15:35:48Z</time>
      </trkpt>
      <trkpt lat="47.18737" lon="-1.42475">
        <ele>28.98</ele>
        <time>2021-08-02T15:36:10Z</time>
      </trkpt>
      <trkpt lat="47.18381" lon="-1.41697">
        <ele>24.65</ele>
        <time>2021-08-02T15:36:36Z</time>
      </trkpt>
      <trkpt lat="47.18195" lon="-1.41393">
        <ele>21.77</ele>
        <time>2021-08-02T15:36:48Z</time>
      </trkpt>
      <trkpt lat="47.17894" lon="-1.40943">
        <ele>17.92</ele>
        <time>2021-08-02T15:37:05Z</time>
      </trkpt>
      <trkpt lat="47.1772" lon="-1.40605">
        <ele>15.52</ele>
        <time>2021-08-02T15:37:18Z</time>
      </trkpt>
      <trkpt lat="47.17553" lon="-1.40199">
        <ele>13.6</ele>
        <time>2021-08-02T15:37:32Z</time>
      </trkpt>
      <trkpt lat="47.17354" lon="-1.39671">
        <ele>7.35</ele>
        <time>2021-08-02T15:37:49Z</time>
      </trkpt>
      <trkpt lat="47.17265" lon="-1.39332">
        <ele>4.46</ele>
        <time>2021-08-02T15:37:59Z</time>
      </trkpt>
      <trkpt lat="47.17196" lon="-1.38879">
        <ele>7.35</ele>
        <time>2021-08-02T15:38:12Z</time>
      </trkpt>
      <trkpt lat="47.17099" lon="-1.38248">
        <ele>7.35</ele>
        <time>2021-08-02T15:38:31Z</time>
      </trkpt>
      <trkpt lat="47.16987" lon="-1.37866">
        <ele>2.06</ele>
        <time>2021-08-02T15:38:43Z</time>
      </trkpt>
      <trkpt lat="47.16835" lon="-1.37534">
        <ele>-0.34</ele>
        <time>2021-08-02T15:38:54Z</time>
      </trkpt>
      <trkpt lat="47.16626" lon="-1.37193">
        <ele>2.54</ele>
        <time>2021-08-02T15:39:06Z</time>
      </trkpt>
      <trkpt lat="47.16355" lon="-1.36755">
        <ele>5.91</ele>
        <time>2021-08-02T15:39:24Z</time>
      </trkpt>
      <trkpt lat="47.16247" lon="-1.36478">
        <ele>9.75</ele>
        <time>2021-08-02T15:39:33Z</time>
      </trkpt>
      <trkpt lat="47.16095" lon="-1.35943">
        <ele>14.56</ele>
        <time>2021-08-02T15:39:49Z</time>
      </trkpt>
      <trkpt lat="47.15993" lon="-1.35504">
        <ele>19.36</ele>
        <time>2021-08-02T15:40:02Z</time>
      </trkpt>
      <trkpt lat="47.15954" lon="-1.35132">
        <ele>22.25</ele>
        <time>2021-08-02T15:40:13Z</time>
      </trkpt>
      <trkpt lat="47.15929" lon="-1.34537">
        <ele>27.05</ele>
        <time>2021-08-02T15:40:31Z</time>
      </trkpt>
      <trkpt lat="47.15866" lon="-1.34181">
        <ele>29.46</ele>
        <time>2021-08-02T15:40:42Z</time>
      </trkpt>
      <trkpt lat="47.15722" lon="-1.33642">
        <ele>32.82</ele>
        <time>2021-08-02T15:40:59Z</time>
      </trkpt>
      <trkpt lat="47.15652" lon="-1.33203">
        <ele>34.74</ele>
        <time>2021-08-02T15:41:12Z</time>
      </trkpt>
      <trkpt lat="47.15619" lon="-1.32641">
        <ele>35.71</ele>
        <time>2021-08-02T15:41:28Z</time>
      </trkpt>
      <trkpt lat="47.15587" lon="-1.31878">
        <ele>32.82</ele>
        <time>2021-08-02T15:41:49Z</time>
      </trkpt>
      <trkpt lat="47.15588" lon="-1.31692">
        <ele>32.34</ele>
        <time>2021-08-02T15:41:56Z</time>
      </trkpt>
      <trkpt lat="47.15572" lon="-1.31488">
        <ele>28.5</ele>
        <time>2021-08-02T15:42:07Z</time>
      </trkpt>
      <trkpt lat="47.15569" lon="-1.31448">
        <ele>28.5</ele>
        <time>2021-08-02T15:42:10Z</time>
      </trkpt>
      <trkpt lat="47.15568" lon="-1.3144">
        <ele>28.5</ele>
        <time>2021-08-02T15:42:11Z</time>
      </trkpt>
      <trkpt lat="47.15567" lon="-1.31433">
        <ele>28.02</ele>
        <time>2021-08-02T15:42:12Z</time>
      </trkpt>
      <trkpt lat="47.15566" lon="-1.31428">
        <ele>27.53</ele>
        <time>2021-08-02T15:42:13Z</time>
      </trkpt>
      <trkpt lat="47.15565" lon="-1.31424">
        <ele>27.53</ele>
        <time>2021-08-02T15:42:14Z</time>
      </trkpt>
      <trkpt lat="47.15562" lon="-1.3142">
        <ele>27.05</ele>
        <time>2021-08-02T15:42:15Z</time>
      </trkpt>
      <trkpt lat="47.15556" lon="-1.31411">
        <ele>27.05</ele>
        <time>2021-08-02T15:42:16Z</time>
      </trkpt>
      <trkpt lat="47.15552" lon="-1.31406">
        <ele>27.05</ele>
        <time>2021-08-02T15:42:18Z</time>
      </trkpt>
      <trkpt lat="47.15549" lon="-1.31401">
        <ele>26.57</ele>
        <time>2021-08-02T15:42:19Z</time>
      </trkpt>
      <trkpt lat="47.15545" lon="-1.31395">
        <ele>26.09</ele>
        <time>2021-08-02T15:42:20Z</time>
      </trkpt>
      <trkpt lat="47.15541" lon="-1.3139">
        <ele>26.09</ele>
        <time>2021-08-02T15:42:21Z</time>
      </trkpt>
      <trkpt lat="47.15538" lon="-1.31383">
        <ele>26.09</ele>
        <time>2021-08-02T15:42:22Z</time>
      </trkpt>
      <trkpt lat="47.15537" lon="-1.31376">
        <ele>26.09</ele>
        <time>2021-08-02T15:42:23Z</time>
      </trkpt>
      <trkpt lat="47.15536" lon="-1.31369">
        <ele>26.09</ele>
        <time>2021-08-02T15:42:24Z</time>
      </trkpt>
      <trkpt lat="47.15536" lon="-1.31363">
        <ele>26.09</ele>
        <time>2021-08-02T15:42:25Z</time>
      </trkpt>
      <trkpt lat="47.15536" lon="-1.31357">
        <ele>26.09</ele>
        <time>2021-08-02T15:42:26Z</time>
      </trkpt>
      <trkpt lat="47.15537" lon="-1.31304">
        <ele>26.09</ele>
        <time>2021-08-02T15:42:40Z</time>
      </trkpt>
      <trkpt lat="47.15537" lon="-1.31299">
        <ele>26.57</ele>
        <time>2021-08-02T15:43:04Z</time>
      </trkpt>
      <trkpt lat="47.15537" lon="-1.31299">
        <ele>26.57</ele>
        <time>2021-08-02T15:54:09Z</time>
      </trkpt>
      <trkpt lat="47.15537" lon="-1.31299">
        <ele>27.05</ele>
        <time>2021-08-02T16:04:49Z</time>
      </trkpt>
      <trkpt lat="47.15537" lon="-1.31299">
        <ele>27.53</ele>
        <time>2021-08-02T16:11:18Z</time>
      </trkpt>
      <trkpt lat="47.15537" lon="-1.31299">
        <ele>27.05</ele>
        <time>2021-08-02T16:22:36Z</time>
      </trkpt>
      <trkpt lat="47.15537" lon="-1.31299">
        <ele>27.53</ele>
        <time>2021-08-02T16:23:43Z</time>
      </trkpt>
      <trkpt lat="47.15537" lon="-1.31299">
        <ele>27.53</ele>
        <time>2021-08-02T16:23:44Z</time>
      </trkpt>
      <trkpt lat="47.15537" lon="-1.31289">
        <ele>27.53</ele>
        <time>2021-08-02T16:23:45Z</time>
      </trkpt>
      <trkpt lat="47.15537" lon="-1.31287">
        <ele>27.53</ele>
        <time>2021-08-02T16:23:46Z</time>
      </trkpt>
      <trkpt lat="47.15537" lon="-1.31284">
        <ele>27.53</ele>
        <time>2021-08-02T16:23:47Z</time>
      </trkpt>
      <trkpt lat="47.15537" lon="-1.31282">
        <ele>27.53</ele>
        <time>2021-08-02T16:23:48Z</time>
      </trkpt>
      <trkpt lat="47.15537" lon="-1.31279">
        <ele>27.53</ele>
        <time>2021-08-02T16:23:49Z</time>
      </trkpt>
      <trkpt lat="47.15544" lon="-1.31209">
        <ele>27.05</ele>
        <time>2021-08-02T16:24:03Z</time>
      </trkpt>
      <trkpt lat="47.15556" lon="-1.31146">
        <ele>27.05</ele>
        <time>2021-08-02T16:24:12Z</time>
      </trkpt>
      <trkpt lat="47.15557" lon="-1.3114">
        <ele>27.05</ele>
        <time>2021-08-02T16:24:13Z</time>
      </trkpt>
      <trkpt lat="47.1556" lon="-1.31135">
        <ele>27.05</ele>
        <time>2021-08-02T16:24:14Z</time>
      </trkpt>
      <trkpt lat="47.15563" lon="-1.31131">
        <ele>27.05</ele>
        <time>2021-08-02T16:24:15Z</time>
      </trkpt>
      <trkpt lat="47.15566" lon="-1.31127">
        <ele>27.05</ele>
        <time>2021-08-02T16:24:16Z</time>
      </trkpt>
      <trkpt lat="47.15571" lon="-1.3112">
        <ele>26.57</ele>
        <time>2021-08-02T16:24:17Z</time>
      </trkpt>
      <trkpt lat="47.1562" lon="-1.31066">
        <ele>26.09</ele>
        <time>2021-08-02T16:24:27Z</time>
      </trkpt>
      <trkpt lat="47.15648" lon="-1.31035">
        <ele>26.09</ele>
        <time>2021-08-02T16:24:31Z</time>
      </trkpt>
      <trkpt lat="47.15648" lon="-1.31035">
        <ele>26.09</ele>
        <time>2021-08-02T16:24:32Z</time>
      </trkpt>
      <trkpt lat="47.15652" lon="-1.3102">
        <ele>27.05</ele>
        <time>2021-08-02T16:24:33Z</time>
      </trkpt>
      <trkpt lat="47.15661" lon="-1.3099">
        <ele>26.57</ele>
        <time>2021-08-02T16:24:34Z</time>
      </trkpt>
      <trkpt lat="47.15661" lon="-1.3099">
        <ele>26.09</ele>
        <time>2021-08-02T16:24:35Z</time>
      </trkpt>
      <trkpt lat="47.15701" lon="-1.30804">
        <ele>25.61</ele>
        <time>2021-08-02T16:24:44Z</time>
      </trkpt>
      <trkpt lat="47.15736" lon="-1.30533">
        <ele>25.13</ele>
        <time>2021-08-02T16:24:54Z</time>
      </trkpt>
      <trkpt lat="47.15735" lon="-1.302">
        <ele>27.53</ele>
        <time>2021-08-02T16:25:05Z</time>
      </trkpt>
      <trkpt lat="47.15688" lon="-1.2984">
        <ele>30.42</ele>
        <time>2021-08-02T16:25:16Z</time>
      </trkpt>
      <trkpt lat="47.15611" lon="-1.29349">
        <ele>33.78</ele>
        <time>2021-08-02T16:25:31Z</time>
      </trkpt>
      <trkpt lat="47.15603" lon="-1.28996">
        <ele>35.71</ele>
        <time>2021-08-02T16:25:42Z</time>
      </trkpt>
      <trkpt lat="47.15637" lon="-1.28508">
        <ele>39.07</ele>
        <time>2021-08-02T16:25:57Z</time>
      </trkpt>
      <trkpt lat="47.15657" lon="-1.27988">
        <ele>43.4</ele>
        <time>2021-08-02T16:26:12Z</time>
      </trkpt>
      <trkpt lat="47.15618" lon="-1.27492">
        <ele>42.44</ele>
        <time>2021-08-02T16:26:25Z</time>
      </trkpt>
      <trkpt lat="47.15545" lon="-1.26983">
        <ele>38.11</ele>
        <time>2021-08-02T16:26:40Z</time>
      </trkpt>
      <trkpt lat="47.15497" lon="-1.2647">
        <ele>35.23</ele>
        <time>2021-08-02T16:26:54Z</time>
      </trkpt>
      <trkpt lat="47.15494" lon="-1.25969">
        <ele>37.63</ele>
        <time>2021-08-02T16:27:08Z</time>
      </trkpt>
      <trkpt lat="47.15527" lon="-1.25391">
        <ele>44.36</ele>
        <time>2021-08-02T16:27:25Z</time>
      </trkpt>
      <trkpt lat="47.15552" lon="-1.24858">
        <ele>52.53</ele>
        <time>2021-08-02T16:27:40Z</time>
      </trkpt>
      <trkpt lat="47.15536" lon="-1.24339">
        <ele>58.78</ele>
        <time>2021-08-02T16:27:55Z</time>
      </trkpt>
      <trkpt lat="47.15511" lon="-1.23609">
        <ele>69.83</ele>
        <time>2021-08-02T16:28:17Z</time>
      </trkpt>
      <trkpt lat="47.15489" lon="-1.229">
        <ele>76.08</ele>
        <time>2021-08-02T16:28:37Z</time>
      </trkpt>
      <trkpt lat="47.15437" lon="-1.22252">
        <ele>77.52</ele>
        <time>2021-08-02T16:28:55Z</time>
      </trkpt>
      <trkpt lat="47.15443" lon="-1.21831">
        <ele>76.56</ele>
        <time>2021-08-02T16:29:07Z</time>
      </trkpt>
      <trkpt lat="47.15491" lon="-1.21176">
        <ele>73.68</ele>
        <time>2021-08-02T16:29:25Z</time>
      </trkpt>
      <trkpt lat="47.15492" lon="-1.20814">
        <ele>71.76</ele>
        <time>2021-08-02T16:29:35Z</time>
      </trkpt>
      <trkpt lat="47.15446" lon="-1.20473">
        <ele>69.35</ele>
        <time>2021-08-02T16:29:45Z</time>
      </trkpt>
      <trkpt lat="47.1535" lon="-1.20147">
        <ele>57.34</ele>
        <time>2021-08-02T16:29:55Z</time>
      </trkpt>
      <trkpt lat="47.15189" lon="-1.19817">
        <ele>46.28</ele>
        <time>2021-08-02T16:30:05Z</time>
      </trkpt>
      <trkpt lat="47.15025" lon="-1.19597">
        <ele>45.8</ele>
        <time>2021-08-02T16:30:15Z</time>
      </trkpt>
      <trkpt lat="47.14771" lon="-1.19308">
        <ele>62.62</ele>
        <time>2021-08-02T16:30:29Z</time>
      </trkpt>
      <trkpt lat="47.14584" lon="-1.19032">
        <ele>71.76</ele>
        <time>2021-08-02T16:30:41Z</time>
      </trkpt>
      <trkpt lat="47.14457" lon="-1.18751">
        <ele>77.04</ele>
        <time>2021-08-02T16:30:51Z</time>
      </trkpt>
      <trkpt lat="47.14371" lon="-1.18426">
        <ele>77.52</ele>
        <time>2021-08-02T16:31:01Z</time>
      </trkpt>
      <trkpt lat="47.14273" lon="-1.17819">
        <ele>76.08</ele>
        <time>2021-08-02T16:31:18Z</time>
      </trkpt>
      <trkpt lat="47.14184" lon="-1.17478">
        <ele>74.16</ele>
        <time>2021-08-02T16:31:28Z</time>
      </trkpt>
      <trkpt lat="47.13997" lon="-1.16968">
        <ele>78.97</ele>
        <time>2021-08-02T16:31:44Z</time>
      </trkpt>
      <trkpt lat="47.13899" lon="-1.16626">
        <ele>83.29</ele>
        <time>2021-08-02T16:31:55Z</time>
      </trkpt>
      <trkpt lat="47.13763" lon="-1.16112">
        <ele>88.58</ele>
        <time>2021-08-02T16:32:11Z</time>
      </trkpt>
      <trkpt lat="47.13604" lon="-1.15717">
        <ele>87.62</ele>
        <time>2021-08-02T16:32:24Z</time>
      </trkpt>
      <trkpt lat="47.13346" lon="-1.15116">
        <ele>85.21</ele>
        <time>2021-08-02T16:32:44Z</time>
      </trkpt>
      <trkpt lat="47.13233" lon="-1.14721">
        <ele>86.18</ele>
        <time>2021-08-02T16:32:56Z</time>
      </trkpt>
      <trkpt lat="47.13173" lon="-1.1438">
        <ele>88.58</ele>
        <time>2021-08-02T16:33:06Z</time>
      </trkpt>
      <trkpt lat="47.13123" lon="-1.13901">
        <ele>90.02</ele>
        <time>2021-08-02T16:33:20Z</time>
      </trkpt>
      <trkpt lat="47.13034" lon="-1.13287">
        <ele>91.94</ele>
        <time>2021-08-02T16:33:38Z</time>
      </trkpt>
      <trkpt lat="47.12898" lon="-1.12671">
        <ele>84.73</ele>
        <time>2021-08-02T16:33:56Z</time>
      </trkpt>
      <trkpt lat="47.12721" lon="-1.12015">
        <ele>81.85</ele>
        <time>2021-08-02T16:34:16Z</time>
      </trkpt>
      <trkpt lat="47.12515" lon="-1.1124">
        <ele>85.21</ele>
        <time>2021-08-02T16:34:40Z</time>
      </trkpt>
      <trkpt lat="47.12301" lon="-1.10385">
        <ele>89.54</ele>
        <time>2021-08-02T16:35:05Z</time>
      </trkpt>
      <trkpt lat="47.12161" lon="-1.09778">
        <ele>97.23</ele>
        <time>2021-08-02T16:35:25Z</time>
      </trkpt>
      <trkpt lat="47.12038" lon="-1.09064">
        <ele>101.08</ele>
        <time>2021-08-02T16:35:46Z</time>
      </trkpt>
      <trkpt lat="47.11963" lon="-1.08492">
        <ele>96.75</ele>
        <time>2021-08-02T16:36:03Z</time>
      </trkpt>
      <trkpt lat="47.11856" lon="-1.07696">
        <ele>86.66</ele>
        <time>2021-08-02T16:36:25Z</time>
      </trkpt>
      <trkpt lat="47.11744" lon="-1.07031">
        <ele>85.69</ele>
        <time>2021-08-02T16:36:44Z</time>
      </trkpt>
      <trkpt lat="47.11584" lon="-1.06352">
        <ele>86.66</ele>
        <time>2021-08-02T16:37:04Z</time>
      </trkpt>
      <trkpt lat="47.1139" lon="-1.05712">
        <ele>83.77</ele>
        <time>2021-08-02T16:37:23Z</time>
      </trkpt>
      <trkpt lat="47.11142" lon="-1.04921">
        <ele>80.41</ele>
        <time>2021-08-02T16:37:47Z</time>
      </trkpt>
      <trkpt lat="47.10993" lon="-1.0431">
        <ele>78</ele>
        <time>2021-08-02T16:38:05Z</time>
      </trkpt>
      <trkpt lat="47.10832" lon="-1.03598">
        <ele>80.41</ele>
        <time>2021-08-02T16:38:26Z</time>
      </trkpt>
      <trkpt lat="47.10721" lon="-1.03276">
        <ele>81.85</ele>
        <time>2021-08-02T16:38:38Z</time>
      </trkpt>
      <trkpt lat="47.10571" lon="-1.02986">
        <ele>82.81</ele>
        <time>2021-08-02T16:38:49Z</time>
      </trkpt>
      <trkpt lat="47.10382" lon="-1.02724">
        <ele>80.89</ele>
        <time>2021-08-02T16:39:00Z</time>
      </trkpt>
      <trkpt lat="47.10158" lon="-1.02399">
        <ele>79.93</ele>
        <time>2021-08-02T16:39:13Z</time>
      </trkpt>
      <trkpt lat="47.09997" lon="-1.02052">
        <ele>85.69</ele>
        <time>2021-08-02T16:39:25Z</time>
      </trkpt>
      <trkpt lat="47.09801" lon="-1.01608">
        <ele>93.87</ele>
        <time>2021-08-02T16:39:41Z</time>
      </trkpt>
      <trkpt lat="47.09547" lon="-1.01138">
        <ele>99.63</ele>
        <time>2021-08-02T16:39:59Z</time>
      </trkpt>
      <trkpt lat="47.09392" lon="-1.00811">
        <ele>98.19</ele>
        <time>2021-08-02T16:40:11Z</time>
      </trkpt>
      <trkpt lat="47.09331" lon="-1.00651">
        <ele>97.71</ele>
        <time>2021-08-02T16:40:18Z</time>
      </trkpt>
      <trkpt lat="47.093" lon="-1.00602">
        <ele>97.23</ele>
        <time>2021-08-02T16:40:23Z</time>
      </trkpt>
      <trkpt lat="47.09293" lon="-1.00596">
        <ele>97.23</ele>
        <time>2021-08-02T16:40:24Z</time>
      </trkpt>
      <trkpt lat="47.09279" lon="-1.00587">
        <ele>97.23</ele>
        <time>2021-08-02T16:40:25Z</time>
      </trkpt>
      <trkpt lat="47.09279" lon="-1.00587">
        <ele>96.75</ele>
        <time>2021-08-02T16:40:26Z</time>
      </trkpt>
      <trkpt lat="47.0927" lon="-1.00585">
        <ele>97.71</ele>
        <time>2021-08-02T16:40:28Z</time>
      </trkpt>
      <trkpt lat="47.09256" lon="-1.00593">
        <ele>98.19</ele>
        <time>2021-08-02T16:40:29Z</time>
      </trkpt>
      <trkpt lat="47.0925" lon="-1.00597">
        <ele>98.67</ele>
        <time>2021-08-02T16:40:30Z</time>
      </trkpt>
      <trkpt lat="47.09244" lon="-1.00607">
        <ele>99.63</ele>
        <time>2021-08-02T16:40:31Z</time>
      </trkpt>
      <trkpt lat="47.0924" lon="-1.00616">
        <ele>100.11</ele>
        <time>2021-08-02T16:40:32Z</time>
      </trkpt>
      <trkpt lat="47.09239" lon="-1.00629">
        <ele>100.6</ele>
        <time>2021-08-02T16:40:33Z</time>
      </trkpt>
      <trkpt lat="47.09237" lon="-1.00642">
        <ele>101.08</ele>
        <time>2021-08-02T16:40:34Z</time>
      </trkpt>
      <trkpt lat="47.09236" lon="-1.00654">
        <ele>101.08</ele>
        <time>2021-08-02T16:40:35Z</time>
      </trkpt>
      <trkpt lat="47.09235" lon="-1.00669">
        <ele>101.56</ele>
        <time>2021-08-02T16:40:41Z</time>
      </trkpt>
      <trkpt lat="47.09239" lon="-1.00684">
        <ele>102.04</ele>
        <time>2021-08-02T16:40:58Z</time>
      </trkpt>
      <trkpt lat="47.09242" lon="-1.00687">
        <ele>102.04</ele>
        <time>2021-08-02T16:40:59Z</time>
      </trkpt>
      <trkpt lat="47.09246" lon="-1.00691">
        <ele>102.04</ele>
        <time>2021-08-02T16:41:00Z</time>
      </trkpt>
      <trkpt lat="47.09249" lon="-1.00694">
        <ele>102.04</ele>
        <time>2021-08-02T16:41:01Z</time>
      </trkpt>
    </trkseg>
  </trk>
</gpx>